<?xml version="1.0" encoding="UTF-8" standalone="no" ?>
<gpx xmlns="http://www.topografix.com/GPX/1/1" xmlns:xsi="http://www.w3.org/2001/XMLSchema-instance" xsi:schemaLocation="http://www.topografix.com/GPX/1/1 http://www.topografix.com/GPX/1/1/gpx.xsd" version="1.1" creator="VisuGPX - https://www.visugpx.com">
  <metadata>
    <name>La Plagne - Mars 2011 (JLo)</name>
    <desc><![CDATA[Une journée à La Plagne]]></desc>
  </metadata>
  <trk>
    <name><![CDATA[Position 1 to Position 1242]]></name>
    <trkseg>
      <trkpt lat="45.51222" lon="6.6669">
        <ele>2115</ele>
        <time>2011-03-16T08:08:00.771Z</time>
      </trkpt>
      <trkpt lat="45.51232" lon="6.66691">
        <ele>2117</ele>
        <time>2011-03-16T08:08:15.999Z</time>
      </trkpt>
      <trkpt lat="45.51232" lon="6.66691">
        <ele>2118</ele>
        <time>2011-03-16T08:08:31.989Z</time>
      </trkpt>
      <trkpt lat="45.51228" lon="6.66693">
        <ele>2118</ele>
        <time>2011-03-16T08:09:18.999Z</time>
      </trkpt>
      <trkpt lat="45.51278" lon="6.66687">
        <ele>2115</ele>
        <time>2011-03-16T08:09:33.998Z</time>
      </trkpt>
      <trkpt lat="45.51322" lon="6.66674">
        <ele>2114</ele>
        <time>2011-03-16T08:09:39.988Z</time>
      </trkpt>
      <trkpt lat="45.51369" lon="6.66718">
        <ele>2110</ele>
        <time>2011-03-16T08:09:44.986Z</time>
      </trkpt>
      <trkpt lat="45.51406" lon="6.66769">
        <ele>2114</ele>
        <time>2011-03-16T08:09:50.977Z</time>
      </trkpt>
      <trkpt lat="45.51424" lon="6.66837">
        <ele>2098</ele>
        <time>2011-03-16T08:09:59.866Z</time>
      </trkpt>
      <trkpt lat="45.5153" lon="6.66907">
        <ele>2085</ele>
        <time>2011-03-16T08:10:16.000Z</time>
      </trkpt>
      <trkpt lat="45.51563" lon="6.66893">
        <ele>2083</ele>
        <time>2011-03-16T08:10:31.993Z</time>
      </trkpt>
      <trkpt lat="45.51572" lon="6.66881">
        <ele>2080</ele>
        <time>2011-03-16T08:10:47.799Z</time>
      </trkpt>
      <trkpt lat="45.51567" lon="6.66879">
        <ele>2080</ele>
        <time>2011-03-16T08:11:02.870Z</time>
      </trkpt>
      <trkpt lat="45.51564" lon="6.66878">
        <ele>2080</ele>
        <time>2011-03-16T08:11:18.793Z</time>
      </trkpt>
      <trkpt lat="45.51554" lon="6.66872">
        <ele>2079</ele>
        <time>2011-03-16T08:11:34.801Z</time>
      </trkpt>
      <trkpt lat="45.51482" lon="6.66828">
        <ele>2055</ele>
        <time>2011-03-16T08:11:35.794Z</time>
      </trkpt>
      <trkpt lat="45.5145" lon="6.66793">
        <ele>2059</ele>
        <time>2011-03-16T08:11:51.999Z</time>
      </trkpt>
      <trkpt lat="45.51429" lon="6.66772">
        <ele>2068</ele>
        <time>2011-03-16T08:12:07.783Z</time>
      </trkpt>
      <trkpt lat="45.51408" lon="6.6675">
        <ele>2074</ele>
        <time>2011-03-16T08:12:22.981Z</time>
      </trkpt>
      <trkpt lat="45.51386" lon="6.66728">
        <ele>2084</ele>
        <time>2011-03-16T08:12:38.796Z</time>
      </trkpt>
      <trkpt lat="45.51365" lon="6.66708">
        <ele>2092</ele>
        <time>2011-03-16T08:12:53.999Z</time>
      </trkpt>
      <trkpt lat="45.51343" lon="6.66685">
        <ele>2095</ele>
        <time>2011-03-16T08:13:09.842Z</time>
      </trkpt>
      <trkpt lat="45.51321" lon="6.66662">
        <ele>2103</ele>
        <time>2011-03-16T08:13:25.804Z</time>
      </trkpt>
      <trkpt lat="45.51299" lon="6.66639">
        <ele>2111</ele>
        <time>2011-03-16T08:13:41.782Z</time>
      </trkpt>
      <trkpt lat="45.51279" lon="6.66619">
        <ele>2119</ele>
        <time>2011-03-16T08:13:56.787Z</time>
      </trkpt>
      <trkpt lat="45.51258" lon="6.66596">
        <ele>2127</ele>
        <time>2011-03-16T08:14:12.000Z</time>
      </trkpt>
      <trkpt lat="45.51237" lon="6.66575">
        <ele>2133</ele>
        <time>2011-03-16T08:14:27.788Z</time>
      </trkpt>
      <trkpt lat="45.51216" lon="6.66553">
        <ele>2140</ele>
        <time>2011-03-16T08:14:43.999Z</time>
      </trkpt>
      <trkpt lat="45.51196" lon="6.66533">
        <ele>2146</ele>
        <time>2011-03-16T08:14:59.960Z</time>
      </trkpt>
      <trkpt lat="45.51177" lon="6.66511">
        <ele>2151</ele>
        <time>2011-03-16T08:15:14.998Z</time>
      </trkpt>
      <trkpt lat="45.51154" lon="6.66488">
        <ele>2158</ele>
        <time>2011-03-16T08:15:29.999Z</time>
      </trkpt>
      <trkpt lat="45.51131" lon="6.66465">
        <ele>2167</ele>
        <time>2011-03-16T08:15:45.999Z</time>
      </trkpt>
      <trkpt lat="45.51111" lon="6.66443">
        <ele>2172</ele>
        <time>2011-03-16T08:16:01.775Z</time>
      </trkpt>
      <trkpt lat="45.51088" lon="6.6642">
        <ele>2175</ele>
        <time>2011-03-16T08:16:16.998Z</time>
      </trkpt>
      <trkpt lat="45.51066" lon="6.66398">
        <ele>2178</ele>
        <time>2011-03-16T08:16:32.782Z</time>
      </trkpt>
      <trkpt lat="45.51038" lon="6.66402">
        <ele>2177</ele>
        <time>2011-03-16T08:16:48.771Z</time>
      </trkpt>
      <trkpt lat="45.51037" lon="6.66407">
        <ele>2178</ele>
        <time>2011-03-16T08:17:03.794Z</time>
      </trkpt>
      <trkpt lat="45.51037" lon="6.66408">
        <ele>2179</ele>
        <time>2011-03-16T08:17:19.775Z</time>
      </trkpt>
      <trkpt lat="45.51034" lon="6.66418">
        <ele>2178</ele>
        <time>2011-03-16T08:17:34.999Z</time>
      </trkpt>
      <trkpt lat="45.51012" lon="6.66473">
        <ele>2178</ele>
        <time>2011-03-16T08:17:50.999Z</time>
      </trkpt>
      <trkpt lat="45.5098" lon="6.66521">
        <ele>2178</ele>
        <time>2011-03-16T08:18:06.997Z</time>
      </trkpt>
      <trkpt lat="45.50946" lon="6.66581">
        <ele>2177</ele>
        <time>2011-03-16T08:18:20.999Z</time>
      </trkpt>
      <trkpt lat="45.50921" lon="6.66649">
        <ele>2176</ele>
        <time>2011-03-16T08:18:25.999Z</time>
      </trkpt>
      <trkpt lat="45.50889" lon="6.66702">
        <ele>2175</ele>
        <time>2011-03-16T08:18:30.995Z</time>
      </trkpt>
      <trkpt lat="45.50872" lon="6.6677">
        <ele>2175</ele>
        <time>2011-03-16T08:18:35.973Z</time>
      </trkpt>
      <trkpt lat="45.50861" lon="6.66834">
        <ele>2174</ele>
        <time>2011-03-16T08:18:41.956Z</time>
      </trkpt>
      <trkpt lat="45.50856" lon="6.66885">
        <ele>2170</ele>
        <time>2011-03-16T08:18:57.766Z</time>
      </trkpt>
      <trkpt lat="45.50855" lon="6.66882">
        <ele>2163</ele>
        <time>2011-03-16T08:19:12.787Z</time>
      </trkpt>
      <trkpt lat="45.50855" lon="6.6688">
        <ele>2155</ele>
        <time>2011-03-16T08:19:28.990Z</time>
      </trkpt>
      <trkpt lat="45.5081" lon="6.66895">
        <ele>2153</ele>
        <time>2011-03-16T08:19:36.000Z</time>
      </trkpt>
      <trkpt lat="45.50767" lon="6.66926">
        <ele>2150</ele>
        <time>2011-03-16T08:19:44.765Z</time>
      </trkpt>
      <trkpt lat="45.50718" lon="6.66952">
        <ele>2147</ele>
        <time>2011-03-16T08:19:50.768Z</time>
      </trkpt>
      <trkpt lat="45.50672" lon="6.66952">
        <ele>2146</ele>
        <time>2011-03-16T08:19:55.762Z</time>
      </trkpt>
      <trkpt lat="45.50626" lon="6.66978">
        <ele>2143</ele>
        <time>2011-03-16T08:20:01.999Z</time>
      </trkpt>
      <trkpt lat="45.50581" lon="6.67005">
        <ele>2142</ele>
        <time>2011-03-16T08:20:07.983Z</time>
      </trkpt>
      <trkpt lat="45.50551" lon="6.67058">
        <ele>2141</ele>
        <time>2011-03-16T08:20:12.998Z</time>
      </trkpt>
      <trkpt lat="45.50526" lon="6.67126">
        <ele>2140</ele>
        <time>2011-03-16T08:20:17.999Z</time>
      </trkpt>
      <trkpt lat="45.505" lon="6.67182">
        <ele>2139</ele>
        <time>2011-03-16T08:20:22.997Z</time>
      </trkpt>
      <trkpt lat="45.50503" lon="6.67252">
        <ele>2136</ele>
        <time>2011-03-16T08:20:30.999Z</time>
      </trkpt>
      <trkpt lat="45.50502" lon="6.67319">
        <ele>2135</ele>
        <time>2011-03-16T08:20:37.999Z</time>
      </trkpt>
      <trkpt lat="45.50483" lon="6.67381">
        <ele>2133</ele>
        <time>2011-03-16T08:20:43.999Z</time>
      </trkpt>
      <trkpt lat="45.5048" lon="6.67451">
        <ele>2132</ele>
        <time>2011-03-16T08:20:53.999Z</time>
      </trkpt>
      <trkpt lat="45.50488" lon="6.67517">
        <ele>2129</ele>
        <time>2011-03-16T08:21:04.999Z</time>
      </trkpt>
      <trkpt lat="45.50496" lon="6.67581">
        <ele>2126</ele>
        <time>2011-03-16T08:21:19.999Z</time>
      </trkpt>
      <trkpt lat="45.50496" lon="6.67611">
        <ele>2120</ele>
        <time>2011-03-16T08:21:35.999Z</time>
      </trkpt>
      <trkpt lat="45.50498" lon="6.67631">
        <ele>2115</ele>
        <time>2011-03-16T08:21:51.949Z</time>
      </trkpt>
      <trkpt lat="45.50505" lon="6.67665">
        <ele>2110</ele>
        <time>2011-03-16T08:22:07.780Z</time>
      </trkpt>
      <trkpt lat="45.50522" lon="6.67696">
        <ele>2105</ele>
        <time>2011-03-16T08:22:22.786Z</time>
      </trkpt>
      <trkpt lat="45.50542" lon="6.6772">
        <ele>2098</ele>
        <time>2011-03-16T08:22:37.999Z</time>
      </trkpt>
      <trkpt lat="45.50538" lon="6.67736">
        <ele>2093</ele>
        <time>2011-03-16T08:22:53.785Z</time>
      </trkpt>
      <trkpt lat="45.50527" lon="6.67761">
        <ele>2091</ele>
        <time>2011-03-16T08:23:08.999Z</time>
      </trkpt>
      <trkpt lat="45.50527" lon="6.67746">
        <ele>2074</ele>
        <time>2011-03-16T08:23:24.999Z</time>
      </trkpt>
      <trkpt lat="45.50526" lon="6.67745">
        <ele>2071</ele>
        <time>2011-03-16T08:23:40.989Z</time>
      </trkpt>
      <trkpt lat="45.50528" lon="6.67741">
        <ele>2064</ele>
        <time>2011-03-16T08:23:55.997Z</time>
      </trkpt>
      <trkpt lat="45.50536" lon="6.67731">
        <ele>2059</ele>
        <time>2011-03-16T08:24:10.999Z</time>
      </trkpt>
      <trkpt lat="45.50544" lon="6.67725">
        <ele>2059</ele>
        <time>2011-03-16T08:24:37.999Z</time>
      </trkpt>
      <trkpt lat="45.50538" lon="6.67721">
        <ele>2059</ele>
        <time>2011-03-16T08:24:53.999Z</time>
      </trkpt>
      <trkpt lat="45.50529" lon="6.67716">
        <ele>2059</ele>
        <time>2011-03-16T08:25:09.999Z</time>
      </trkpt>
      <trkpt lat="45.50485" lon="6.67725">
        <ele>2059</ele>
        <time>2011-03-16T08:26:03.999Z</time>
      </trkpt>
      <trkpt lat="45.50444" lon="6.6776">
        <ele>2059</ele>
        <time>2011-03-16T08:26:10.999Z</time>
      </trkpt>
      <trkpt lat="45.50396" lon="6.67784">
        <ele>2058</ele>
        <time>2011-03-16T08:26:19.998Z</time>
      </trkpt>
      <trkpt lat="45.5035" lon="6.67811">
        <ele>2058</ele>
        <time>2011-03-16T08:26:28.989Z</time>
      </trkpt>
      <trkpt lat="45.50303" lon="6.67836">
        <ele>2058</ele>
        <time>2011-03-16T08:26:37.999Z</time>
      </trkpt>
      <trkpt lat="45.50256" lon="6.67861">
        <ele>2058</ele>
        <time>2011-03-16T08:26:46.999Z</time>
      </trkpt>
      <trkpt lat="45.50209" lon="6.67885">
        <ele>2059</ele>
        <time>2011-03-16T08:26:55.997Z</time>
      </trkpt>
      <trkpt lat="45.50164" lon="6.67911">
        <ele>2060</ele>
        <time>2011-03-16T08:27:04.998Z</time>
      </trkpt>
      <trkpt lat="45.50119" lon="6.67935">
        <ele>2062</ele>
        <time>2011-03-16T08:27:13.997Z</time>
      </trkpt>
      <trkpt lat="45.50073" lon="6.67961">
        <ele>2063</ele>
        <time>2011-03-16T08:27:22.999Z</time>
      </trkpt>
      <trkpt lat="45.5003" lon="6.67983">
        <ele>2064</ele>
        <time>2011-03-16T08:27:30.999Z</time>
      </trkpt>
      <trkpt lat="45.49984" lon="6.68008">
        <ele>2066</ele>
        <time>2011-03-16T08:27:39.994Z</time>
      </trkpt>
      <trkpt lat="45.49937" lon="6.68035">
        <ele>2067</ele>
        <time>2011-03-16T08:27:48.999Z</time>
      </trkpt>
      <trkpt lat="45.49891" lon="6.6806">
        <ele>2068</ele>
        <time>2011-03-16T08:27:57.999Z</time>
      </trkpt>
      <trkpt lat="45.49846" lon="6.68087">
        <ele>2069</ele>
        <time>2011-03-16T08:28:06.938Z</time>
      </trkpt>
      <trkpt lat="45.49802" lon="6.68111">
        <ele>2072</ele>
        <time>2011-03-16T08:28:15.838Z</time>
      </trkpt>
      <trkpt lat="45.49757" lon="6.68131">
        <ele>2074</ele>
        <time>2011-03-16T08:28:24.866Z</time>
      </trkpt>
      <trkpt lat="45.4971" lon="6.68152">
        <ele>2077</ele>
        <time>2011-03-16T08:28:33.809Z</time>
      </trkpt>
      <trkpt lat="45.49668" lon="6.68179">
        <ele>2080</ele>
        <time>2011-03-16T08:28:41.798Z</time>
      </trkpt>
      <trkpt lat="45.49622" lon="6.68206">
        <ele>2087</ele>
        <time>2011-03-16T08:28:50.770Z</time>
      </trkpt>
      <trkpt lat="45.49578" lon="6.68233">
        <ele>2092</ele>
        <time>2011-03-16T08:28:59.772Z</time>
      </trkpt>
      <trkpt lat="45.49534" lon="6.68258">
        <ele>2094</ele>
        <time>2011-03-16T08:29:08.777Z</time>
      </trkpt>
      <trkpt lat="45.49489" lon="6.68283">
        <ele>2097</ele>
        <time>2011-03-16T08:29:17.999Z</time>
      </trkpt>
      <trkpt lat="45.49442" lon="6.68302">
        <ele>2101</ele>
        <time>2011-03-16T08:29:26.764Z</time>
      </trkpt>
      <trkpt lat="45.49396" lon="6.68325">
        <ele>2115</ele>
        <time>2011-03-16T08:29:36.762Z</time>
      </trkpt>
      <trkpt lat="45.49355" lon="6.6836">
        <ele>2121</ele>
        <time>2011-03-16T08:29:47.000Z</time>
      </trkpt>
      <trkpt lat="45.4931" lon="6.68384">
        <ele>2127</ele>
        <time>2011-03-16T08:29:57.763Z</time>
      </trkpt>
      <trkpt lat="45.49258" lon="6.68411">
        <ele>2135</ele>
        <time>2011-03-16T08:30:07.996Z</time>
      </trkpt>
      <trkpt lat="45.49212" lon="6.68432">
        <ele>2141</ele>
        <time>2011-03-16T08:30:16.764Z</time>
      </trkpt>
      <trkpt lat="45.49167" lon="6.68457">
        <ele>2148</ele>
        <time>2011-03-16T08:30:24.995Z</time>
      </trkpt>
      <trkpt lat="45.49129" lon="6.68476">
        <ele>2148</ele>
        <time>2011-03-16T08:30:40.999Z</time>
      </trkpt>
      <trkpt lat="45.49148" lon="6.68453">
        <ele>2149</ele>
        <time>2011-03-16T08:30:56.999Z</time>
      </trkpt>
      <trkpt lat="45.49203" lon="6.68434">
        <ele>2188</ele>
        <time>2011-03-16T08:31:01.990Z</time>
      </trkpt>
      <trkpt lat="45.49251" lon="6.68423">
        <ele>2220</ele>
        <time>2011-03-16T08:31:05.995Z</time>
      </trkpt>
      <trkpt lat="45.49271" lon="6.68444">
        <ele>2261</ele>
        <time>2011-03-16T08:31:21.999Z</time>
      </trkpt>
      <trkpt lat="45.49249" lon="6.68423">
        <ele>2291</ele>
        <time>2011-03-16T08:31:37.999Z</time>
      </trkpt>
      <trkpt lat="45.49237" lon="6.68409">
        <ele>2312</ele>
        <time>2011-03-16T08:31:53.998Z</time>
      </trkpt>
      <trkpt lat="45.49221" lon="6.68406">
        <ele>2353</ele>
        <time>2011-03-16T08:32:09.999Z</time>
      </trkpt>
      <trkpt lat="45.4921" lon="6.68419">
        <ele>2380</ele>
        <time>2011-03-16T08:32:25.999Z</time>
      </trkpt>
      <trkpt lat="45.49204" lon="6.68484">
        <ele>2407</ele>
        <time>2011-03-16T08:32:37.999Z</time>
      </trkpt>
      <trkpt lat="45.49203" lon="6.68554">
        <ele>2418</ele>
        <time>2011-03-16T08:32:43.999Z</time>
      </trkpt>
      <trkpt lat="45.49197" lon="6.68623">
        <ele>2425</ele>
        <time>2011-03-16T08:32:48.999Z</time>
      </trkpt>
      <trkpt lat="45.49187" lon="6.68695">
        <ele>2433</ele>
        <time>2011-03-16T08:32:53.989Z</time>
      </trkpt>
      <trkpt lat="45.49178" lon="6.68768">
        <ele>2439</ele>
        <time>2011-03-16T08:32:59.984Z</time>
      </trkpt>
      <trkpt lat="45.49164" lon="6.68802">
        <ele>2450</ele>
        <time>2011-03-16T08:33:15.768Z</time>
      </trkpt>
      <trkpt lat="45.49167" lon="6.68874">
        <ele>2459</ele>
        <time>2011-03-16T08:33:30.793Z</time>
      </trkpt>
      <trkpt lat="45.49181" lon="6.68948">
        <ele>2459</ele>
        <time>2011-03-16T08:33:35.773Z</time>
      </trkpt>
      <trkpt lat="45.49198" lon="6.69015">
        <ele>2458</ele>
        <time>2011-03-16T08:33:39.781Z</time>
      </trkpt>
      <trkpt lat="45.49207" lon="6.69087">
        <ele>2458</ele>
        <time>2011-03-16T08:33:45.778Z</time>
      </trkpt>
      <trkpt lat="45.49212" lon="6.69159">
        <ele>2457</ele>
        <time>2011-03-16T08:33:53.770Z</time>
      </trkpt>
      <trkpt lat="45.49234" lon="6.69221">
        <ele>2454</ele>
        <time>2011-03-16T08:34:03.756Z</time>
      </trkpt>
      <trkpt lat="45.49238" lon="6.6929">
        <ele>2454</ele>
        <time>2011-03-16T08:34:11.999Z</time>
      </trkpt>
      <trkpt lat="45.49242" lon="6.6936">
        <ele>2451</ele>
        <time>2011-03-16T08:34:18.777Z</time>
      </trkpt>
      <trkpt lat="45.49261" lon="6.69423">
        <ele>2449</ele>
        <time>2011-03-16T08:34:24.770Z</time>
      </trkpt>
      <trkpt lat="45.49264" lon="6.69492">
        <ele>2448</ele>
        <time>2011-03-16T08:34:30.998Z</time>
      </trkpt>
      <trkpt lat="45.49244" lon="6.69559">
        <ele>2443</ele>
        <time>2011-03-16T08:34:43.751Z</time>
      </trkpt>
      <trkpt lat="45.49259" lon="6.69623">
        <ele>2443</ele>
        <time>2011-03-16T08:34:48.771Z</time>
      </trkpt>
      <trkpt lat="45.49288" lon="6.69687">
        <ele>2442</ele>
        <time>2011-03-16T08:34:53.764Z</time>
      </trkpt>
      <trkpt lat="45.49326" lon="6.69737">
        <ele>2441</ele>
        <time>2011-03-16T08:34:58.997Z</time>
      </trkpt>
      <trkpt lat="45.49354" lon="6.69788">
        <ele>2440</ele>
        <time>2011-03-16T08:35:03.999Z</time>
      </trkpt>
      <trkpt lat="45.49381" lon="6.69853">
        <ele>2440</ele>
        <time>2011-03-16T08:35:09.999Z</time>
      </trkpt>
      <trkpt lat="45.49412" lon="6.69906">
        <ele>2439</ele>
        <time>2011-03-16T08:35:14.995Z</time>
      </trkpt>
      <trkpt lat="45.49445" lon="6.69899">
        <ele>2407</ele>
        <time>2011-03-16T08:35:29.997Z</time>
      </trkpt>
      <trkpt lat="45.4944" lon="6.69888">
        <ele>2394</ele>
        <time>2011-03-16T08:35:45.789Z</time>
      </trkpt>
      <trkpt lat="45.49401" lon="6.69922">
        <ele>2388</ele>
        <time>2011-03-16T08:35:55.778Z</time>
      </trkpt>
      <trkpt lat="45.49428" lon="6.69991">
        <ele>2385</ele>
        <time>2011-03-16T08:36:00.795Z</time>
      </trkpt>
      <trkpt lat="45.49455" lon="6.70046">
        <ele>2384</ele>
        <time>2011-03-16T08:36:04.802Z</time>
      </trkpt>
      <trkpt lat="45.49503" lon="6.70066">
        <ele>2382</ele>
        <time>2011-03-16T08:36:11.807Z</time>
      </trkpt>
      <trkpt lat="45.49539" lon="6.70109">
        <ele>2379</ele>
        <time>2011-03-16T08:36:16.763Z</time>
      </trkpt>
      <trkpt lat="45.49592" lon="6.70117">
        <ele>2376</ele>
        <time>2011-03-16T08:36:21.759Z</time>
      </trkpt>
      <trkpt lat="45.49645" lon="6.70135">
        <ele>2373</ele>
        <time>2011-03-16T08:36:26.999Z</time>
      </trkpt>
      <trkpt lat="45.49695" lon="6.70156">
        <ele>2370</ele>
        <time>2011-03-16T08:36:31.000Z</time>
      </trkpt>
      <trkpt lat="45.4975" lon="6.70177">
        <ele>2367</ele>
        <time>2011-03-16T08:36:36.765Z</time>
      </trkpt>
      <trkpt lat="45.49791" lon="6.70201">
        <ele>2364</ele>
        <time>2011-03-16T08:36:40.773Z</time>
      </trkpt>
      <trkpt lat="45.49842" lon="6.70219">
        <ele>2361</ele>
        <time>2011-03-16T08:36:44.779Z</time>
      </trkpt>
      <trkpt lat="45.49899" lon="6.70208">
        <ele>2356</ele>
        <time>2011-03-16T08:36:48.998Z</time>
      </trkpt>
      <trkpt lat="45.49945" lon="6.70208">
        <ele>2352</ele>
        <time>2011-03-16T08:36:53.991Z</time>
      </trkpt>
      <trkpt lat="45.4999" lon="6.70193">
        <ele>2343</ele>
        <time>2011-03-16T08:37:05.990Z</time>
      </trkpt>
      <trkpt lat="45.49992" lon="6.70259">
        <ele>2320</ele>
        <time>2011-03-16T08:37:18.768Z</time>
      </trkpt>
      <trkpt lat="45.4999" lon="6.70274">
        <ele>2312</ele>
        <time>2011-03-16T08:37:33.770Z</time>
      </trkpt>
      <trkpt lat="45.4999" lon="6.70275">
        <ele>2306</ele>
        <time>2011-03-16T08:37:49.775Z</time>
      </trkpt>
      <trkpt lat="45.50018" lon="6.70332">
        <ele>2299</ele>
        <time>2011-03-16T08:38:04.757Z</time>
      </trkpt>
      <trkpt lat="45.50049" lon="6.70386">
        <ele>2297</ele>
        <time>2011-03-16T08:38:09.998Z</time>
      </trkpt>
      <trkpt lat="45.50083" lon="6.70434">
        <ele>2294</ele>
        <time>2011-03-16T08:38:15.997Z</time>
      </trkpt>
      <trkpt lat="45.50112" lon="6.70491">
        <ele>2290</ele>
        <time>2011-03-16T08:38:23.761Z</time>
      </trkpt>
      <trkpt lat="45.50128" lon="6.70524">
        <ele>2277</ele>
        <time>2011-03-16T08:38:38.788Z</time>
      </trkpt>
      <trkpt lat="45.50146" lon="6.7053">
        <ele>2266</ele>
        <time>2011-03-16T08:38:53.999Z</time>
      </trkpt>
      <trkpt lat="45.50193" lon="6.70537">
        <ele>2263</ele>
        <time>2011-03-16T08:38:59.753Z</time>
      </trkpt>
      <trkpt lat="45.50245" lon="6.70542">
        <ele>2263</ele>
        <time>2011-03-16T08:39:04.761Z</time>
      </trkpt>
      <trkpt lat="45.50296" lon="6.70552">
        <ele>2262</ele>
        <time>2011-03-16T08:39:09.752Z</time>
      </trkpt>
      <trkpt lat="45.50348" lon="6.70546">
        <ele>2262</ele>
        <time>2011-03-16T08:39:13.999Z</time>
      </trkpt>
      <trkpt lat="45.50398" lon="6.70533">
        <ele>2261</ele>
        <time>2011-03-16T08:39:16.998Z</time>
      </trkpt>
      <trkpt lat="45.50448" lon="6.70488">
        <ele>2261</ele>
        <time>2011-03-16T08:39:20.000Z</time>
      </trkpt>
      <trkpt lat="45.50498" lon="6.70454">
        <ele>2261</ele>
        <time>2011-03-16T08:39:24.763Z</time>
      </trkpt>
      <trkpt lat="45.50546" lon="6.70426">
        <ele>2261</ele>
        <time>2011-03-16T08:39:28.766Z</time>
      </trkpt>
      <trkpt lat="45.50592" lon="6.7039">
        <ele>2260</ele>
        <time>2011-03-16T08:39:32.752Z</time>
      </trkpt>
      <trkpt lat="45.50641" lon="6.70363">
        <ele>2260</ele>
        <time>2011-03-16T08:39:37.999Z</time>
      </trkpt>
      <trkpt lat="45.50688" lon="6.70336">
        <ele>2260</ele>
        <time>2011-03-16T08:39:42.000Z</time>
      </trkpt>
      <trkpt lat="45.50737" lon="6.70316">
        <ele>2253</ele>
        <time>2011-03-16T08:39:47.790Z</time>
      </trkpt>
      <trkpt lat="45.50787" lon="6.70301">
        <ele>2246</ele>
        <time>2011-03-16T08:39:52.760Z</time>
      </trkpt>
      <trkpt lat="45.5084" lon="6.70289">
        <ele>2239</ele>
        <time>2011-03-16T08:39:57.999Z</time>
      </trkpt>
      <trkpt lat="45.50884" lon="6.70262">
        <ele>2233</ele>
        <time>2011-03-16T08:40:02.989Z</time>
      </trkpt>
      <trkpt lat="45.5093" lon="6.70228">
        <ele>2230</ele>
        <time>2011-03-16T08:40:07.999Z</time>
      </trkpt>
      <trkpt lat="45.50972" lon="6.7019">
        <ele>2219</ele>
        <time>2011-03-16T08:40:11.982Z</time>
      </trkpt>
      <trkpt lat="45.51017" lon="6.70144">
        <ele>2210</ele>
        <time>2011-03-16T08:40:15.999Z</time>
      </trkpt>
      <trkpt lat="45.51059" lon="6.70099">
        <ele>2203</ele>
        <time>2011-03-16T08:40:19.999Z</time>
      </trkpt>
      <trkpt lat="45.51098" lon="6.70058">
        <ele>2197</ele>
        <time>2011-03-16T08:40:23.999Z</time>
      </trkpt>
      <trkpt lat="45.51144" lon="6.70022">
        <ele>2190</ele>
        <time>2011-03-16T08:40:27.987Z</time>
      </trkpt>
      <trkpt lat="45.51188" lon="6.69983">
        <ele>2184</ele>
        <time>2011-03-16T08:40:31.000Z</time>
      </trkpt>
      <trkpt lat="45.51224" lon="6.69938">
        <ele>2170</ele>
        <time>2011-03-16T08:40:36.789Z</time>
      </trkpt>
      <trkpt lat="45.51263" lon="6.69905">
        <ele>2162</ele>
        <time>2011-03-16T08:40:41.753Z</time>
      </trkpt>
      <trkpt lat="45.51287" lon="6.69844">
        <ele>2146</ele>
        <time>2011-03-16T08:40:49.889Z</time>
      </trkpt>
      <trkpt lat="45.51268" lon="6.69785">
        <ele>2116</ele>
        <time>2011-03-16T08:40:58.786Z</time>
      </trkpt>
      <trkpt lat="45.51266" lon="6.69769">
        <ele>2107</ele>
        <time>2011-03-16T08:41:13.999Z</time>
      </trkpt>
      <trkpt lat="45.51271" lon="6.69755">
        <ele>2095</ele>
        <time>2011-03-16T08:41:29.778Z</time>
      </trkpt>
      <trkpt lat="45.5127" lon="6.69751">
        <ele>2085</ele>
        <time>2011-03-16T08:41:44.999Z</time>
      </trkpt>
      <trkpt lat="45.51269" lon="6.69749">
        <ele>2080</ele>
        <time>2011-03-16T08:42:00.762Z</time>
      </trkpt>
      <trkpt lat="45.51266" lon="6.69751">
        <ele>2073</ele>
        <time>2011-03-16T08:42:15.999Z</time>
      </trkpt>
      <trkpt lat="45.51265" lon="6.69749">
        <ele>2067</ele>
        <time>2011-03-16T08:42:31.999Z</time>
      </trkpt>
      <trkpt lat="45.51265" lon="6.69749">
        <ele>2066</ele>
        <time>2011-03-16T08:42:47.999Z</time>
      </trkpt>
      <trkpt lat="45.5126" lon="6.69746">
        <ele>2060</ele>
        <time>2011-03-16T08:43:03.999Z</time>
      </trkpt>
      <trkpt lat="45.51259" lon="6.69745">
        <ele>2053</ele>
        <time>2011-03-16T08:43:19.999Z</time>
      </trkpt>
      <trkpt lat="45.51256" lon="6.69744">
        <ele>2049</ele>
        <time>2011-03-16T08:43:35.999Z</time>
      </trkpt>
      <trkpt lat="45.51229" lon="6.69758">
        <ele>2001</ele>
        <time>2011-03-16T08:43:51.999Z</time>
      </trkpt>
      <trkpt lat="45.5123" lon="6.69756">
        <ele>1999</ele>
        <time>2011-03-16T08:44:07.770Z</time>
      </trkpt>
      <trkpt lat="45.5123" lon="6.69756">
        <ele>1998</ele>
        <time>2011-03-16T08:44:22.799Z</time>
      </trkpt>
      <trkpt lat="45.5123" lon="6.69756">
        <ele>1998</ele>
        <time>2011-03-16T08:44:38.776Z</time>
      </trkpt>
      <trkpt lat="45.51232" lon="6.6975">
        <ele>1997</ele>
        <time>2011-03-16T08:44:54.768Z</time>
      </trkpt>
      <trkpt lat="45.51232" lon="6.69751">
        <ele>1996</ele>
        <time>2011-03-16T08:45:10.772Z</time>
      </trkpt>
      <trkpt lat="45.51232" lon="6.69754">
        <ele>1995</ele>
        <time>2011-03-16T08:45:25.801Z</time>
      </trkpt>
      <trkpt lat="45.51229" lon="6.69756">
        <ele>1991</ele>
        <time>2011-03-16T08:45:40.995Z</time>
      </trkpt>
      <trkpt lat="45.5123" lon="6.69755">
        <ele>1989</ele>
        <time>2011-03-16T08:45:56.759Z</time>
      </trkpt>
      <trkpt lat="45.51231" lon="6.69755">
        <ele>1988</ele>
        <time>2011-03-16T08:46:11.768Z</time>
      </trkpt>
      <trkpt lat="45.51231" lon="6.69755">
        <ele>1988</ele>
        <time>2011-03-16T08:46:27.763Z</time>
      </trkpt>
      <trkpt lat="45.51231" lon="6.69752">
        <ele>1987</ele>
        <time>2011-03-16T08:46:42.784Z</time>
      </trkpt>
      <trkpt lat="45.51232" lon="6.69751">
        <ele>1986</ele>
        <time>2011-03-16T08:46:58.999Z</time>
      </trkpt>
      <trkpt lat="45.51232" lon="6.6975">
        <ele>1986</ele>
        <time>2011-03-16T08:47:14.764Z</time>
      </trkpt>
      <trkpt lat="45.51233" lon="6.69749">
        <ele>1986</ele>
        <time>2011-03-16T08:47:29.986Z</time>
      </trkpt>
      <trkpt lat="45.51233" lon="6.69744">
        <ele>1986</ele>
        <time>2011-03-16T08:47:45.999Z</time>
      </trkpt>
      <trkpt lat="45.51233" lon="6.69743">
        <ele>1986</ele>
        <time>2011-03-16T08:48:01.839Z</time>
      </trkpt>
      <trkpt lat="45.51233" lon="6.69744">
        <ele>1985</ele>
        <time>2011-03-16T08:48:17.796Z</time>
      </trkpt>
      <trkpt lat="45.51233" lon="6.69743">
        <ele>1985</ele>
        <time>2011-03-16T08:48:32.999Z</time>
      </trkpt>
      <trkpt lat="45.51237" lon="6.69743">
        <ele>1988</ele>
        <time>2011-03-16T08:48:48.774Z</time>
      </trkpt>
      <trkpt lat="45.51236" lon="6.69743">
        <ele>1987</ele>
        <time>2011-03-16T08:49:03.999Z</time>
      </trkpt>
      <trkpt lat="45.51236" lon="6.69744">
        <ele>1987</ele>
        <time>2011-03-16T08:49:19.996Z</time>
      </trkpt>
      <trkpt lat="45.51237" lon="6.69745">
        <ele>1985</ele>
        <time>2011-03-16T08:49:35.999Z</time>
      </trkpt>
      <trkpt lat="45.51237" lon="6.69745">
        <ele>1985</ele>
        <time>2011-03-16T08:49:51.991Z</time>
      </trkpt>
      <trkpt lat="45.5124" lon="6.69744">
        <ele>1984</ele>
        <time>2011-03-16T08:50:06.996Z</time>
      </trkpt>
      <trkpt lat="45.5124" lon="6.69745">
        <ele>1984</ele>
        <time>2011-03-16T08:50:21.999Z</time>
      </trkpt>
      <trkpt lat="45.5124" lon="6.69743">
        <ele>1983</ele>
        <time>2011-03-16T08:50:37.995Z</time>
      </trkpt>
      <trkpt lat="45.51241" lon="6.69743">
        <ele>1983</ele>
        <time>2011-03-16T08:50:52.998Z</time>
      </trkpt>
      <trkpt lat="45.51241" lon="6.69742">
        <ele>1983</ele>
        <time>2011-03-16T08:51:08.856Z</time>
      </trkpt>
      <trkpt lat="45.51244" lon="6.69741">
        <ele>1984</ele>
        <time>2011-03-16T08:51:24.752Z</time>
      </trkpt>
      <trkpt lat="45.51245" lon="6.69739">
        <ele>1986</ele>
        <time>2011-03-16T08:51:39.761Z</time>
      </trkpt>
      <trkpt lat="45.51245" lon="6.69739">
        <ele>1986</ele>
        <time>2011-03-16T08:51:55.775Z</time>
      </trkpt>
      <trkpt lat="45.51246" lon="6.69736">
        <ele>1988</ele>
        <time>2011-03-16T08:52:11.757Z</time>
      </trkpt>
      <trkpt lat="45.51247" lon="6.69734">
        <ele>1989</ele>
        <time>2011-03-16T08:52:26.790Z</time>
      </trkpt>
      <trkpt lat="45.51243" lon="6.69734">
        <ele>1986</ele>
        <time>2011-03-16T08:52:41.996Z</time>
      </trkpt>
      <trkpt lat="45.51243" lon="6.69734">
        <ele>1986</ele>
        <time>2011-03-16T08:52:57.795Z</time>
      </trkpt>
      <trkpt lat="45.51243" lon="6.69735">
        <ele>1984</ele>
        <time>2011-03-16T08:53:12.996Z</time>
      </trkpt>
      <trkpt lat="45.51242" lon="6.69736">
        <ele>1983</ele>
        <time>2011-03-16T08:53:28.773Z</time>
      </trkpt>
      <trkpt lat="45.51241" lon="6.69737">
        <ele>1982</ele>
        <time>2011-03-16T08:53:43.803Z</time>
      </trkpt>
      <trkpt lat="45.51239" lon="6.69736">
        <ele>1982</ele>
        <time>2011-03-16T08:53:58.989Z</time>
      </trkpt>
      <trkpt lat="45.51239" lon="6.69737">
        <ele>1981</ele>
        <time>2011-03-16T08:54:13.999Z</time>
      </trkpt>
      <trkpt lat="45.51239" lon="6.6974">
        <ele>1981</ele>
        <time>2011-03-16T08:54:29.998Z</time>
      </trkpt>
      <trkpt lat="45.51239" lon="6.69739">
        <ele>1982</ele>
        <time>2011-03-16T08:54:44.999Z</time>
      </trkpt>
      <trkpt lat="45.51239" lon="6.6974">
        <ele>1981</ele>
        <time>2011-03-16T08:55:00.754Z</time>
      </trkpt>
      <trkpt lat="45.51239" lon="6.69741">
        <ele>1980</ele>
        <time>2011-03-16T08:55:15.783Z</time>
      </trkpt>
      <trkpt lat="45.51239" lon="6.69741">
        <ele>1981</ele>
        <time>2011-03-16T08:55:31.757Z</time>
      </trkpt>
      <trkpt lat="45.5124" lon="6.69741">
        <ele>1980</ele>
        <time>2011-03-16T08:55:47.765Z</time>
      </trkpt>
      <trkpt lat="45.5124" lon="6.69741">
        <ele>1980</ele>
        <time>2011-03-16T08:56:02.767Z</time>
      </trkpt>
      <trkpt lat="45.5124" lon="6.6974">
        <ele>1980</ele>
        <time>2011-03-16T08:56:17.996Z</time>
      </trkpt>
      <trkpt lat="45.51241" lon="6.69736">
        <ele>1981</ele>
        <time>2011-03-16T08:56:33.994Z</time>
      </trkpt>
      <trkpt lat="45.51241" lon="6.69736">
        <ele>1981</ele>
        <time>2011-03-16T08:56:49.755Z</time>
      </trkpt>
      <trkpt lat="45.51241" lon="6.69736">
        <ele>1981</ele>
        <time>2011-03-16T08:57:04.999Z</time>
      </trkpt>
      <trkpt lat="45.51241" lon="6.69736">
        <ele>1981</ele>
        <time>2011-03-16T08:57:20.999Z</time>
      </trkpt>
      <trkpt lat="45.51241" lon="6.69736">
        <ele>1981</ele>
        <time>2011-03-16T08:57:36.915Z</time>
      </trkpt>
      <trkpt lat="45.51241" lon="6.69737">
        <ele>1981</ele>
        <time>2011-03-16T08:57:52.758Z</time>
      </trkpt>
      <trkpt lat="45.51241" lon="6.69736">
        <ele>1981</ele>
        <time>2011-03-16T08:58:08.769Z</time>
      </trkpt>
      <trkpt lat="45.51238" lon="6.69738">
        <ele>1982</ele>
        <time>2011-03-16T08:58:23.999Z</time>
      </trkpt>
      <trkpt lat="45.51238" lon="6.69737">
        <ele>1983</ele>
        <time>2011-03-16T08:58:39.999Z</time>
      </trkpt>
      <trkpt lat="45.51238" lon="6.69737">
        <ele>1983</ele>
        <time>2011-03-16T08:58:55.776Z</time>
      </trkpt>
      <trkpt lat="45.51238" lon="6.69737">
        <ele>1983</ele>
        <time>2011-03-16T08:59:10.999Z</time>
      </trkpt>
      <trkpt lat="45.51237" lon="6.69736">
        <ele>1982</ele>
        <time>2011-03-16T08:59:26.992Z</time>
      </trkpt>
      <trkpt lat="45.51237" lon="6.69736">
        <ele>1983</ele>
        <time>2011-03-16T08:59:41.996Z</time>
      </trkpt>
      <trkpt lat="45.51238" lon="6.69736">
        <ele>1983</ele>
        <time>2011-03-16T08:59:56.999Z</time>
      </trkpt>
      <trkpt lat="45.51237" lon="6.69737">
        <ele>1983</ele>
        <time>2011-03-16T09:00:12.999Z</time>
      </trkpt>
      <trkpt lat="45.51237" lon="6.69737">
        <ele>1983</ele>
        <time>2011-03-16T09:00:28.995Z</time>
      </trkpt>
      <trkpt lat="45.51238" lon="6.69735">
        <ele>1985</ele>
        <time>2011-03-16T09:00:44.999Z</time>
      </trkpt>
      <trkpt lat="45.51239" lon="6.69733">
        <ele>1984</ele>
        <time>2011-03-16T09:01:00.745Z</time>
      </trkpt>
      <trkpt lat="45.51239" lon="6.69731">
        <ele>1984</ele>
        <time>2011-03-16T09:01:16.756Z</time>
      </trkpt>
      <trkpt lat="45.51236" lon="6.6973">
        <ele>1983</ele>
        <time>2011-03-16T09:02:52.000Z</time>
      </trkpt>
      <trkpt lat="45.51171" lon="6.69878">
        <ele>1986</ele>
        <time>2011-03-16T09:03:03.999Z</time>
      </trkpt>
      <trkpt lat="45.51143" lon="6.69931">
        <ele>1988</ele>
        <time>2011-03-16T09:03:14.999Z</time>
      </trkpt>
      <trkpt lat="45.51123" lon="6.69989">
        <ele>1993</ele>
        <time>2011-03-16T09:03:26.999Z</time>
      </trkpt>
      <trkpt lat="45.51087" lon="6.70029">
        <ele>2001</ele>
        <time>2011-03-16T09:03:39.984Z</time>
      </trkpt>
      <trkpt lat="45.5107" lon="6.70089">
        <ele>2003</ele>
        <time>2011-03-16T09:03:50.999Z</time>
      </trkpt>
      <trkpt lat="45.51048" lon="6.70148">
        <ele>2004</ele>
        <time>2011-03-16T09:04:03.768Z</time>
      </trkpt>
      <trkpt lat="45.5102" lon="6.70202">
        <ele>2005</ele>
        <time>2011-03-16T09:04:16.748Z</time>
      </trkpt>
      <trkpt lat="45.50981" lon="6.7024">
        <ele>2012</ele>
        <time>2011-03-16T09:04:30.745Z</time>
      </trkpt>
      <trkpt lat="45.50957" lon="6.70296">
        <ele>2014</ele>
        <time>2011-03-16T09:04:42.751Z</time>
      </trkpt>
      <trkpt lat="45.50934" lon="6.70356">
        <ele>2017</ele>
        <time>2011-03-16T09:04:55.752Z</time>
      </trkpt>
      <trkpt lat="45.50922" lon="6.70418">
        <ele>2021</ele>
        <time>2011-03-16T09:05:07.999Z</time>
      </trkpt>
      <trkpt lat="45.50913" lon="6.70484">
        <ele>2022</ele>
        <time>2011-03-16T09:05:19.999Z</time>
      </trkpt>
      <trkpt lat="45.50895" lon="6.70545">
        <ele>2026</ele>
        <time>2011-03-16T09:05:32.996Z</time>
      </trkpt>
      <trkpt lat="45.50876" lon="6.70603">
        <ele>2030</ele>
        <time>2011-03-16T09:05:45.999Z</time>
      </trkpt>
      <trkpt lat="45.50863" lon="6.70668">
        <ele>2033</ele>
        <time>2011-03-16T09:05:58.999Z</time>
      </trkpt>
      <trkpt lat="45.50833" lon="6.70717">
        <ele>2042</ele>
        <time>2011-03-16T09:06:12.996Z</time>
      </trkpt>
      <trkpt lat="45.50805" lon="6.70768">
        <ele>2046</ele>
        <time>2011-03-16T09:06:25.999Z</time>
      </trkpt>
      <trkpt lat="45.50692" lon="6.70868">
        <ele>2132</ele>
        <time>2011-03-16T09:08:57.000Z</time>
      </trkpt>
      <trkpt lat="45.50664" lon="6.70921">
        <ele>2138</ele>
        <time>2011-03-16T09:09:10.999Z</time>
      </trkpt>
      <trkpt lat="45.50633" lon="6.70969">
        <ele>2141</ele>
        <time>2011-03-16T09:09:22.737Z</time>
      </trkpt>
      <trkpt lat="45.50601" lon="6.71017">
        <ele>2147</ele>
        <time>2011-03-16T09:09:38.761Z</time>
      </trkpt>
      <trkpt lat="45.50574" lon="6.71075">
        <ele>2153</ele>
        <time>2011-03-16T09:09:51.746Z</time>
      </trkpt>
      <trkpt lat="45.5055" lon="6.71133">
        <ele>2154</ele>
        <time>2011-03-16T09:10:04.760Z</time>
      </trkpt>
      <trkpt lat="45.50535" lon="6.71198">
        <ele>2155</ele>
        <time>2011-03-16T09:10:16.757Z</time>
      </trkpt>
      <trkpt lat="45.5052" lon="6.71259">
        <ele>2156</ele>
        <time>2011-03-16T09:10:27.741Z</time>
      </trkpt>
      <trkpt lat="45.50498" lon="6.71322">
        <ele>2157</ele>
        <time>2011-03-16T09:10:40.999Z</time>
      </trkpt>
      <trkpt lat="45.50482" lon="6.7139">
        <ele>2159</ele>
        <time>2011-03-16T09:10:53.999Z</time>
      </trkpt>
      <trkpt lat="45.50474" lon="6.71456">
        <ele>2161</ele>
        <time>2011-03-16T09:11:04.000Z</time>
      </trkpt>
      <trkpt lat="45.50453" lon="6.71517">
        <ele>2163</ele>
        <time>2011-03-16T09:11:17.737Z</time>
      </trkpt>
      <trkpt lat="45.50435" lon="6.71576">
        <ele>2166</ele>
        <time>2011-03-16T09:11:29.741Z</time>
      </trkpt>
      <trkpt lat="45.50419" lon="6.71639">
        <ele>2170</ele>
        <time>2011-03-16T09:11:41.730Z</time>
      </trkpt>
      <trkpt lat="45.50399" lon="6.71701">
        <ele>2173</ele>
        <time>2011-03-16T09:11:54.999Z</time>
      </trkpt>
      <trkpt lat="45.50377" lon="6.71758">
        <ele>2176</ele>
        <time>2011-03-16T09:12:07.903Z</time>
      </trkpt>
      <trkpt lat="45.5035" lon="6.71815">
        <ele>2179</ele>
        <time>2011-03-16T09:12:21.730Z</time>
      </trkpt>
      <trkpt lat="45.50327" lon="6.71876">
        <ele>2184</ele>
        <time>2011-03-16T09:12:34.753Z</time>
      </trkpt>
      <trkpt lat="45.50302" lon="6.71929">
        <ele>2192</ele>
        <time>2011-03-16T09:12:47.743Z</time>
      </trkpt>
      <trkpt lat="45.50279" lon="6.71987">
        <ele>2206</ele>
        <time>2011-03-16T09:13:01.742Z</time>
      </trkpt>
      <trkpt lat="45.50243" lon="6.72025">
        <ele>2228</ele>
        <time>2011-03-16T09:13:16.750Z</time>
      </trkpt>
      <trkpt lat="45.50214" lon="6.7208">
        <ele>2257</ele>
        <time>2011-03-16T09:13:31.795Z</time>
      </trkpt>
      <trkpt lat="45.50199" lon="6.72141">
        <ele>2275</ele>
        <time>2011-03-16T09:13:43.000Z</time>
      </trkpt>
      <trkpt lat="45.50186" lon="6.7221">
        <ele>2296</ele>
        <time>2011-03-16T09:13:55.000Z</time>
      </trkpt>
      <trkpt lat="45.50168" lon="6.72272">
        <ele>2309</ele>
        <time>2011-03-16T09:14:07.825Z</time>
      </trkpt>
      <trkpt lat="45.50121" lon="6.72266">
        <ele>2331</ele>
        <time>2011-03-16T09:14:21.743Z</time>
      </trkpt>
      <trkpt lat="45.50076" lon="6.72276">
        <ele>2358</ele>
        <time>2011-03-16T09:14:35.756Z</time>
      </trkpt>
      <trkpt lat="45.50038" lon="6.72313">
        <ele>2378</ele>
        <time>2011-03-16T09:14:50.758Z</time>
      </trkpt>
      <trkpt lat="45.50003" lon="6.72357">
        <ele>2396</ele>
        <time>2011-03-16T09:15:04.981Z</time>
      </trkpt>
      <trkpt lat="45.49969" lon="6.72402">
        <ele>2409</ele>
        <time>2011-03-16T09:15:17.992Z</time>
      </trkpt>
      <trkpt lat="45.49933" lon="6.72441">
        <ele>2423</ele>
        <time>2011-03-16T09:15:30.998Z</time>
      </trkpt>
      <trkpt lat="45.49893" lon="6.72477">
        <ele>2436</ele>
        <time>2011-03-16T09:15:44.998Z</time>
      </trkpt>
      <trkpt lat="45.49865" lon="6.72529">
        <ele>2453</ele>
        <time>2011-03-16T09:15:58.999Z</time>
      </trkpt>
      <trkpt lat="45.49359" lon="6.73593">
        <ele>2762</ele>
        <time>2011-03-16T09:24:41.819Z</time>
      </trkpt>
      <trkpt lat="45.49359" lon="6.73593">
        <ele>2762</ele>
        <time>2011-03-16T09:24:56.988Z</time>
      </trkpt>
      <trkpt lat="45.49359" lon="6.73593">
        <ele>2762</ele>
        <time>2011-03-16T09:25:12.969Z</time>
      </trkpt>
      <trkpt lat="45.49359" lon="6.73593">
        <ele>2762</ele>
        <time>2011-03-16T09:25:28.768Z</time>
      </trkpt>
      <trkpt lat="45.49359" lon="6.73593">
        <ele>2762</ele>
        <time>2011-03-16T09:25:44.733Z</time>
      </trkpt>
      <trkpt lat="45.49359" lon="6.73592">
        <ele>2762</ele>
        <time>2011-03-16T09:26:00.728Z</time>
      </trkpt>
      <trkpt lat="45.49359" lon="6.73592">
        <ele>2762</ele>
        <time>2011-03-16T09:26:15.999Z</time>
      </trkpt>
      <trkpt lat="45.49359" lon="6.73592">
        <ele>2762</ele>
        <time>2011-03-16T09:26:31.818Z</time>
      </trkpt>
      <trkpt lat="45.49359" lon="6.73592">
        <ele>2762</ele>
        <time>2011-03-16T09:26:47.768Z</time>
      </trkpt>
      <trkpt lat="45.49358" lon="6.7359">
        <ele>2762</ele>
        <time>2011-03-16T09:27:03.745Z</time>
      </trkpt>
      <trkpt lat="45.49357" lon="6.73584">
        <ele>2767</ele>
        <time>2011-03-16T09:27:19.814Z</time>
      </trkpt>
      <trkpt lat="45.49355" lon="6.73577">
        <ele>2770</ele>
        <time>2011-03-16T09:27:35.000Z</time>
      </trkpt>
      <trkpt lat="45.49355" lon="6.73577">
        <ele>2771</ele>
        <time>2011-03-16T09:27:50.763Z</time>
      </trkpt>
      <trkpt lat="45.49357" lon="6.73576">
        <ele>2772</ele>
        <time>2011-03-16T09:28:06.761Z</time>
      </trkpt>
      <trkpt lat="45.49357" lon="6.73576">
        <ele>2773</ele>
        <time>2011-03-16T09:28:22.745Z</time>
      </trkpt>
      <trkpt lat="45.49357" lon="6.73574">
        <ele>2774</ele>
        <time>2011-03-16T09:28:38.736Z</time>
      </trkpt>
      <trkpt lat="45.49357" lon="6.73574">
        <ele>2774</ele>
        <time>2011-03-16T09:28:54.720Z</time>
      </trkpt>
      <trkpt lat="45.49357" lon="6.73574">
        <ele>2774</ele>
        <time>2011-03-16T09:29:09.736Z</time>
      </trkpt>
      <trkpt lat="45.49359" lon="6.73574">
        <ele>2773</ele>
        <time>2011-03-16T09:29:25.720Z</time>
      </trkpt>
      <trkpt lat="45.49359" lon="6.73571">
        <ele>2775</ele>
        <time>2011-03-16T09:29:40.998Z</time>
      </trkpt>
      <trkpt lat="45.4936" lon="6.73572">
        <ele>2776</ele>
        <time>2011-03-16T09:29:56.851Z</time>
      </trkpt>
      <trkpt lat="45.4936" lon="6.73572">
        <ele>2776</ele>
        <time>2011-03-16T09:30:11.936Z</time>
      </trkpt>
      <trkpt lat="45.49361" lon="6.73571">
        <ele>2778</ele>
        <time>2011-03-16T09:30:27.861Z</time>
      </trkpt>
      <trkpt lat="45.49362" lon="6.73569">
        <ele>2779</ele>
        <time>2011-03-16T09:30:43.774Z</time>
      </trkpt>
      <trkpt lat="45.49362" lon="6.7357">
        <ele>2779</ele>
        <time>2011-03-16T09:30:59.753Z</time>
      </trkpt>
      <trkpt lat="45.49362" lon="6.7357">
        <ele>2778</ele>
        <time>2011-03-16T09:31:14.999Z</time>
      </trkpt>
      <trkpt lat="45.49362" lon="6.73569">
        <ele>2776</ele>
        <time>2011-03-16T09:31:30.999Z</time>
      </trkpt>
      <trkpt lat="45.49362" lon="6.7357">
        <ele>2776</ele>
        <time>2011-03-16T09:31:46.737Z</time>
      </trkpt>
      <trkpt lat="45.49362" lon="6.7357">
        <ele>2776</ele>
        <time>2011-03-16T09:32:01.949Z</time>
      </trkpt>
      <trkpt lat="45.49362" lon="6.7357">
        <ele>2776</ele>
        <time>2011-03-16T09:32:16.953Z</time>
      </trkpt>
      <trkpt lat="45.49362" lon="6.7357">
        <ele>2715.9</ele>
        <time>2011-03-16T09:32:32.731Z</time>
      </trkpt>
      <trkpt lat="45.49362" lon="6.7357">
        <ele>2776</ele>
        <time>2011-03-16T09:32:48.000Z</time>
      </trkpt>
      <trkpt lat="45.49362" lon="6.7357">
        <ele>2776</ele>
        <time>2011-03-16T09:33:51.999Z</time>
      </trkpt>
      <trkpt lat="45.49342" lon="6.73628">
        <ele>2778</ele>
        <time>2011-03-16T09:33:59.962Z</time>
      </trkpt>
      <trkpt lat="45.49329" lon="6.73692">
        <ele>2774</ele>
        <time>2011-03-16T09:34:12.740Z</time>
      </trkpt>
      <trkpt lat="45.49316" lon="6.73753">
        <ele>2758</ele>
        <time>2011-03-16T09:34:26.999Z</time>
      </trkpt>
      <trkpt lat="45.49298" lon="6.73815">
        <ele>2751</ele>
        <time>2011-03-16T09:34:41.937Z</time>
      </trkpt>
      <trkpt lat="45.49283" lon="6.7388">
        <ele>2739</ele>
        <time>2011-03-16T09:34:55.735Z</time>
      </trkpt>
      <trkpt lat="45.49272" lon="6.73944">
        <ele>2710</ele>
        <time>2011-03-16T09:35:08.776Z</time>
      </trkpt>
      <trkpt lat="45.4926" lon="6.74006">
        <ele>2679</ele>
        <time>2011-03-16T09:35:22.721Z</time>
      </trkpt>
      <trkpt lat="45.49245" lon="6.74069">
        <ele>2662</ele>
        <time>2011-03-16T09:35:35.733Z</time>
      </trkpt>
      <trkpt lat="45.49229" lon="6.74133">
        <ele>2646</ele>
        <time>2011-03-16T09:35:49.999Z</time>
      </trkpt>
      <trkpt lat="45.49216" lon="6.74198">
        <ele>2633</ele>
        <time>2011-03-16T09:36:02.999Z</time>
      </trkpt>
      <trkpt lat="45.49202" lon="6.7426">
        <ele>2623</ele>
        <time>2011-03-16T09:36:15.999Z</time>
      </trkpt>
      <trkpt lat="45.49193" lon="6.74323">
        <ele>2611</ele>
        <time>2011-03-16T09:36:28.999Z</time>
      </trkpt>
      <trkpt lat="45.4918" lon="6.74388">
        <ele>2605</ele>
        <time>2011-03-16T09:36:42.996Z</time>
      </trkpt>
      <trkpt lat="45.49169" lon="6.74453">
        <ele>2603</ele>
        <time>2011-03-16T09:36:57.998Z</time>
      </trkpt>
      <trkpt lat="45.49156" lon="6.74517">
        <ele>2597</ele>
        <time>2011-03-16T09:37:10.997Z</time>
      </trkpt>
      <trkpt lat="45.49143" lon="6.74581">
        <ele>2594</ele>
        <time>2011-03-16T09:37:24.999Z</time>
      </trkpt>
      <trkpt lat="45.49131" lon="6.74646">
        <ele>2589</ele>
        <time>2011-03-16T09:37:38.999Z</time>
      </trkpt>
      <trkpt lat="45.49119" lon="6.74711">
        <ele>2585</ele>
        <time>2011-03-16T09:37:51.870Z</time>
      </trkpt>
      <trkpt lat="45.49106" lon="6.74773">
        <ele>2583</ele>
        <time>2011-03-16T09:38:04.728Z</time>
      </trkpt>
      <trkpt lat="45.49092" lon="6.74835">
        <ele>2578</ele>
        <time>2011-03-16T09:38:17.717Z</time>
      </trkpt>
      <trkpt lat="45.49092" lon="6.74866">
        <ele>2579</ele>
        <time>2011-03-16T09:38:35.999Z</time>
      </trkpt>
      <trkpt lat="45.49097" lon="6.7486">
        <ele>2579</ele>
        <time>2011-03-16T09:38:51.999Z</time>
      </trkpt>
      <trkpt lat="45.49104" lon="6.7485">
        <ele>2579</ele>
        <time>2011-03-16T09:39:07.994Z</time>
      </trkpt>
      <trkpt lat="45.49107" lon="6.74853">
        <ele>2578</ele>
        <time>2011-03-16T09:39:22.995Z</time>
      </trkpt>
      <trkpt lat="45.49099" lon="6.74863">
        <ele>2578</ele>
        <time>2011-03-16T09:39:38.999Z</time>
      </trkpt>
      <trkpt lat="45.49091" lon="6.74924">
        <ele>2576</ele>
        <time>2011-03-16T09:39:54.907Z</time>
      </trkpt>
      <trkpt lat="45.49088" lon="6.74993">
        <ele>2579</ele>
        <time>2011-03-16T09:40:08.738Z</time>
      </trkpt>
      <trkpt lat="45.49085" lon="6.75059">
        <ele>2586</ele>
        <time>2011-03-16T09:40:22.725Z</time>
      </trkpt>
      <trkpt lat="45.49083" lon="6.75124">
        <ele>2589</ele>
        <time>2011-03-16T09:40:35.999Z</time>
      </trkpt>
      <trkpt lat="45.49081" lon="6.75192">
        <ele>2597</ele>
        <time>2011-03-16T09:40:49.935Z</time>
      </trkpt>
      <trkpt lat="45.49079" lon="6.75261">
        <ele>2602</ele>
        <time>2011-03-16T09:41:03.746Z</time>
      </trkpt>
      <trkpt lat="45.49075" lon="6.75328">
        <ele>2608</ele>
        <time>2011-03-16T09:41:16.996Z</time>
      </trkpt>
      <trkpt lat="45.49073" lon="6.75396">
        <ele>2614</ele>
        <time>2011-03-16T09:41:30.933Z</time>
      </trkpt>
      <trkpt lat="45.49072" lon="6.7546">
        <ele>2620</ele>
        <time>2011-03-16T09:41:43.734Z</time>
      </trkpt>
      <trkpt lat="45.49068" lon="6.75526">
        <ele>2625</ele>
        <time>2011-03-16T09:41:56.999Z</time>
      </trkpt>
      <trkpt lat="45.49067" lon="6.75594">
        <ele>2631</ele>
        <time>2011-03-16T09:42:10.941Z</time>
      </trkpt>
      <trkpt lat="45.49064" lon="6.75663">
        <ele>2640</ele>
        <time>2011-03-16T09:42:25.720Z</time>
      </trkpt>
      <trkpt lat="45.49061" lon="6.75729">
        <ele>2644</ele>
        <time>2011-03-16T09:42:38.998Z</time>
      </trkpt>
      <trkpt lat="45.49058" lon="6.75794">
        <ele>2651</ele>
        <time>2011-03-16T09:42:51.972Z</time>
      </trkpt>
      <trkpt lat="45.49056" lon="6.75862">
        <ele>2654</ele>
        <time>2011-03-16T09:43:04.771Z</time>
      </trkpt>
      <trkpt lat="45.49053" lon="6.75931">
        <ele>2656</ele>
        <time>2011-03-16T09:43:17.714Z</time>
      </trkpt>
      <trkpt lat="45.49052" lon="6.76">
        <ele>2657</ele>
        <time>2011-03-16T09:43:30.751Z</time>
      </trkpt>
      <trkpt lat="45.49053" lon="6.76067">
        <ele>2659</ele>
        <time>2011-03-16T09:43:44.717Z</time>
      </trkpt>
      <trkpt lat="45.49052" lon="6.76134">
        <ele>2661</ele>
        <time>2011-03-16T09:43:57.734Z</time>
      </trkpt>
      <trkpt lat="45.49052" lon="6.76203">
        <ele>2663</ele>
        <time>2011-03-16T09:44:11.997Z</time>
      </trkpt>
      <trkpt lat="45.49051" lon="6.76268">
        <ele>2665</ele>
        <time>2011-03-16T09:44:24.974Z</time>
      </trkpt>
      <trkpt lat="45.49049" lon="6.76332">
        <ele>2666</ele>
        <time>2011-03-16T09:44:36.776Z</time>
      </trkpt>
      <trkpt lat="45.49048" lon="6.76399">
        <ele>2669</ele>
        <time>2011-03-16T09:44:49.000Z</time>
      </trkpt>
      <trkpt lat="45.49047" lon="6.76467">
        <ele>2672</ele>
        <time>2011-03-16T09:45:03.801Z</time>
      </trkpt>
      <trkpt lat="45.49047" lon="6.76533">
        <ele>2674</ele>
        <time>2011-03-16T09:45:17.727Z</time>
      </trkpt>
      <trkpt lat="45.4905" lon="6.76596">
        <ele>2679</ele>
        <time>2011-03-16T09:45:32.745Z</time>
      </trkpt>
      <trkpt lat="45.49053" lon="6.76657">
        <ele>2685</ele>
        <time>2011-03-16T09:45:48.719Z</time>
      </trkpt>
      <trkpt lat="45.49055" lon="6.76717">
        <ele>2691</ele>
        <time>2011-03-16T09:46:03.793Z</time>
      </trkpt>
      <trkpt lat="45.49049" lon="6.76764">
        <ele>2750</ele>
        <time>2011-03-16T09:46:18.995Z</time>
      </trkpt>
      <trkpt lat="45.49042" lon="6.76826">
        <ele>2800</ele>
        <time>2011-03-16T09:46:33.999Z</time>
      </trkpt>
      <trkpt lat="45.49033" lon="6.76894">
        <ele>2849</ele>
        <time>2011-03-16T09:46:48.988Z</time>
      </trkpt>
      <trkpt lat="45.4903" lon="6.76962">
        <ele>2857</ele>
        <time>2011-03-16T09:47:01.884Z</time>
      </trkpt>
      <trkpt lat="45.49028" lon="6.77028">
        <ele>2861</ele>
        <time>2011-03-16T09:47:14.999Z</time>
      </trkpt>
      <trkpt lat="45.49033" lon="6.77093">
        <ele>2870</ele>
        <time>2011-03-16T09:47:30.999Z</time>
      </trkpt>
      <trkpt lat="45.4903" lon="6.77094">
        <ele>2872</ele>
        <time>2011-03-16T09:47:46.978Z</time>
      </trkpt>
      <trkpt lat="45.49028" lon="6.77091">
        <ele>2873</ele>
        <time>2011-03-16T09:48:02.735Z</time>
      </trkpt>
      <trkpt lat="45.4901" lon="6.77102">
        <ele>2875</ele>
        <time>2011-03-16T09:48:18.726Z</time>
      </trkpt>
      <trkpt lat="45.48987" lon="6.77117">
        <ele>2894</ele>
        <time>2011-03-16T09:48:34.730Z</time>
      </trkpt>
      <trkpt lat="45.48984" lon="6.77119">
        <ele>2907</ele>
        <time>2011-03-16T09:48:50.717Z</time>
      </trkpt>
      <trkpt lat="45.48985" lon="6.77121">
        <ele>2922</ele>
        <time>2011-03-16T09:49:05.998Z</time>
      </trkpt>
      <trkpt lat="45.48983" lon="6.77118">
        <ele>2990</ele>
        <time>2011-03-16T09:49:20.999Z</time>
      </trkpt>
      <trkpt lat="45.4898" lon="6.77116">
        <ele>3015</ele>
        <time>2011-03-16T09:49:36.999Z</time>
      </trkpt>
      <trkpt lat="45.48974" lon="6.77116">
        <ele>3031</ele>
        <time>2011-03-16T09:49:52.999Z</time>
      </trkpt>
      <trkpt lat="45.48963" lon="6.77118">
        <ele>3036</ele>
        <time>2011-03-16T09:50:08.843Z</time>
      </trkpt>
      <trkpt lat="45.48952" lon="6.77122">
        <ele>3038</ele>
        <time>2011-03-16T09:50:24.725Z</time>
      </trkpt>
      <trkpt lat="45.48946" lon="6.77124">
        <ele>3040</ele>
        <time>2011-03-16T09:50:39.738Z</time>
      </trkpt>
      <trkpt lat="45.48944" lon="6.77124">
        <ele>3044</ele>
        <time>2011-03-16T09:50:55.723Z</time>
      </trkpt>
      <trkpt lat="45.48943" lon="6.77124">
        <ele>3045</ele>
        <time>2011-03-16T09:51:10.996Z</time>
      </trkpt>
      <trkpt lat="45.48942" lon="6.77125">
        <ele>3047</ele>
        <time>2011-03-16T09:51:27.000Z</time>
      </trkpt>
      <trkpt lat="45.48942" lon="6.77125">
        <ele>3047</ele>
        <time>2011-03-16T09:51:42.734Z</time>
      </trkpt>
      <trkpt lat="45.48942" lon="6.77127">
        <ele>3046</ele>
        <time>2011-03-16T09:51:58.722Z</time>
      </trkpt>
      <trkpt lat="45.48942" lon="6.77126">
        <ele>3045</ele>
        <time>2011-03-16T09:52:14.732Z</time>
      </trkpt>
      <trkpt lat="45.48941" lon="6.77125">
        <ele>3046</ele>
        <time>2011-03-16T09:52:30.713Z</time>
      </trkpt>
      <trkpt lat="45.48941" lon="6.77125">
        <ele>3047</ele>
        <time>2011-03-16T09:52:45.714Z</time>
      </trkpt>
      <trkpt lat="45.4894" lon="6.77125">
        <ele>3047</ele>
        <time>2011-03-16T09:53:00.732Z</time>
      </trkpt>
      <trkpt lat="45.48939" lon="6.77123">
        <ele>3048</ele>
        <time>2011-03-16T09:53:15.996Z</time>
      </trkpt>
      <trkpt lat="45.4894" lon="6.77125">
        <ele>3049</ele>
        <time>2011-03-16T09:53:31.983Z</time>
      </trkpt>
      <trkpt lat="45.4894" lon="6.77125">
        <ele>3051</ele>
        <time>2011-03-16T09:53:47.000Z</time>
      </trkpt>
      <trkpt lat="45.4894" lon="6.77125">
        <ele>3050</ele>
        <time>2011-03-16T09:54:02.709Z</time>
      </trkpt>
      <trkpt lat="45.4894" lon="6.77124">
        <ele>3050</ele>
        <time>2011-03-16T09:54:17.712Z</time>
      </trkpt>
      <trkpt lat="45.4894" lon="6.77124">
        <ele>3050</ele>
        <time>2011-03-16T09:54:32.726Z</time>
      </trkpt>
      <trkpt lat="45.4894" lon="6.77125">
        <ele>3050</ele>
        <time>2011-03-16T09:54:48.710Z</time>
      </trkpt>
      <trkpt lat="45.4894" lon="6.77124">
        <ele>3050</ele>
        <time>2011-03-16T09:55:03.999Z</time>
      </trkpt>
      <trkpt lat="45.48939" lon="6.77125">
        <ele>3050</ele>
        <time>2011-03-16T09:55:19.976Z</time>
      </trkpt>
      <trkpt lat="45.48925" lon="6.77134">
        <ele>3049</ele>
        <time>2011-03-16T09:55:34.999Z</time>
      </trkpt>
      <trkpt lat="45.48883" lon="6.77161">
        <ele>3048</ele>
        <time>2011-03-16T09:55:50.763Z</time>
      </trkpt>
      <trkpt lat="45.4885" lon="6.77179">
        <ele>3045</ele>
        <time>2011-03-16T09:56:06.723Z</time>
      </trkpt>
      <trkpt lat="45.48814" lon="6.77191">
        <ele>3046</ele>
        <time>2011-03-16T09:56:22.701Z</time>
      </trkpt>
      <trkpt lat="45.48767" lon="6.77184">
        <ele>3045</ele>
        <time>2011-03-16T09:56:35.000Z</time>
      </trkpt>
      <trkpt lat="45.48725" lon="6.77161">
        <ele>3043</ele>
        <time>2011-03-16T09:56:48.962Z</time>
      </trkpt>
      <trkpt lat="45.48686" lon="6.77134">
        <ele>3041</ele>
        <time>2011-03-16T09:57:03.999Z</time>
      </trkpt>
      <trkpt lat="45.4868" lon="6.77139">
        <ele>3038</ele>
        <time>2011-03-16T09:57:19.953Z</time>
      </trkpt>
      <trkpt lat="45.48679" lon="6.77146">
        <ele>3035</ele>
        <time>2011-03-16T09:57:35.698Z</time>
      </trkpt>
      <trkpt lat="45.48677" lon="6.77164">
        <ele>3032</ele>
        <time>2011-03-16T09:57:50.719Z</time>
      </trkpt>
      <trkpt lat="45.48677" lon="6.77191">
        <ele>3033</ele>
        <time>2011-03-16T09:58:05.872Z</time>
      </trkpt>
      <trkpt lat="45.48676" lon="6.77221">
        <ele>3036</ele>
        <time>2011-03-16T09:58:21.719Z</time>
      </trkpt>
      <trkpt lat="45.48677" lon="6.77258">
        <ele>3037</ele>
        <time>2011-03-16T09:58:37.000Z</time>
      </trkpt>
      <trkpt lat="45.48679" lon="6.77303">
        <ele>3042</ele>
        <time>2011-03-16T09:58:53.000Z</time>
      </trkpt>
      <trkpt lat="45.48678" lon="6.7734">
        <ele>3049</ele>
        <time>2011-03-16T09:59:08.813Z</time>
      </trkpt>
      <trkpt lat="45.48678" lon="6.77373">
        <ele>3053</ele>
        <time>2011-03-16T09:59:24.716Z</time>
      </trkpt>
      <trkpt lat="45.48677" lon="6.77409">
        <ele>3061</ele>
        <time>2011-03-16T09:59:40.718Z</time>
      </trkpt>
      <trkpt lat="45.48677" lon="6.77442">
        <ele>3071</ele>
        <time>2011-03-16T09:59:56.697Z</time>
      </trkpt>
      <trkpt lat="45.48675" lon="6.77476">
        <ele>3084</ele>
        <time>2011-03-16T10:00:12.999Z</time>
      </trkpt>
      <trkpt lat="45.48673" lon="6.7751">
        <ele>3102</ele>
        <time>2011-03-16T10:00:28.702Z</time>
      </trkpt>
      <trkpt lat="45.48671" lon="6.77546">
        <ele>3119</ele>
        <time>2011-03-16T10:00:44.697Z</time>
      </trkpt>
      <trkpt lat="45.48669" lon="6.77579">
        <ele>3133</ele>
        <time>2011-03-16T10:00:59.999Z</time>
      </trkpt>
      <trkpt lat="45.48668" lon="6.77616">
        <ele>3145</ele>
        <time>2011-03-16T10:01:15.999Z</time>
      </trkpt>
      <trkpt lat="45.48667" lon="6.77647">
        <ele>3157</ele>
        <time>2011-03-16T10:01:31.999Z</time>
      </trkpt>
      <trkpt lat="45.48665" lon="6.77682">
        <ele>3171</ele>
        <time>2011-03-16T10:01:47.998Z</time>
      </trkpt>
      <trkpt lat="45.48664" lon="6.77714">
        <ele>3181</ele>
        <time>2011-03-16T10:02:02.999Z</time>
      </trkpt>
      <trkpt lat="45.48664" lon="6.77745">
        <ele>3193</ele>
        <time>2011-03-16T10:02:18.999Z</time>
      </trkpt>
      <trkpt lat="45.48664" lon="6.77776">
        <ele>3198</ele>
        <time>2011-03-16T10:02:34.999Z</time>
      </trkpt>
      <trkpt lat="45.48674" lon="6.77793">
        <ele>3201</ele>
        <time>2011-03-16T10:02:50.999Z</time>
      </trkpt>
      <trkpt lat="45.48673" lon="6.77796">
        <ele>3203</ele>
        <time>2011-03-16T10:03:06.996Z</time>
      </trkpt>
      <trkpt lat="45.48672" lon="6.77799">
        <ele>3205</ele>
        <time>2011-03-16T10:03:21.999Z</time>
      </trkpt>
      <trkpt lat="45.48667" lon="6.77806">
        <ele>3208</ele>
        <time>2011-03-16T10:03:37.967Z</time>
      </trkpt>
      <trkpt lat="45.48677" lon="6.77827">
        <ele>3209</ele>
        <time>2011-03-16T10:03:53.855Z</time>
      </trkpt>
      <trkpt lat="45.4869" lon="6.77837">
        <ele>3210</ele>
        <time>2011-03-16T10:04:09.701Z</time>
      </trkpt>
      <trkpt lat="45.48706" lon="6.77846">
        <ele>3210</ele>
        <time>2011-03-16T10:04:25.700Z</time>
      </trkpt>
      <trkpt lat="45.48703" lon="6.77819">
        <ele>3209</ele>
        <time>2011-03-16T10:04:40.988Z</time>
      </trkpt>
      <trkpt lat="45.48712" lon="6.77771">
        <ele>3200</ele>
        <time>2011-03-16T10:04:56.694Z</time>
      </trkpt>
      <trkpt lat="45.48709" lon="6.77717">
        <ele>3188</ele>
        <time>2011-03-16T10:05:11.716Z</time>
      </trkpt>
      <trkpt lat="45.48705" lon="6.77655">
        <ele>3174</ele>
        <time>2011-03-16T10:05:27.000Z</time>
      </trkpt>
      <trkpt lat="45.48702" lon="6.77605">
        <ele>3156</ele>
        <time>2011-03-16T10:05:42.688Z</time>
      </trkpt>
      <trkpt lat="45.48702" lon="6.77539">
        <ele>3144</ele>
        <time>2011-03-16T10:05:57.995Z</time>
      </trkpt>
      <trkpt lat="45.48701" lon="6.77471">
        <ele>3129</ele>
        <time>2011-03-16T10:06:07.999Z</time>
      </trkpt>
      <trkpt lat="45.48704" lon="6.77403">
        <ele>3117</ele>
        <time>2011-03-16T10:06:17.999Z</time>
      </trkpt>
      <trkpt lat="45.48704" lon="6.77335">
        <ele>3110</ele>
        <time>2011-03-16T10:06:26.996Z</time>
      </trkpt>
      <trkpt lat="45.4872" lon="6.77271">
        <ele>3101</ele>
        <time>2011-03-16T10:06:37.997Z</time>
      </trkpt>
      <trkpt lat="45.48726" lon="6.77203">
        <ele>3092</ele>
        <time>2011-03-16T10:06:45.999Z</time>
      </trkpt>
      <trkpt lat="45.48704" lon="6.77146">
        <ele>3072</ele>
        <time>2011-03-16T10:06:58.998Z</time>
      </trkpt>
      <trkpt lat="45.48689" lon="6.77132">
        <ele>3063</ele>
        <time>2011-03-16T10:07:13.999Z</time>
      </trkpt>
      <trkpt lat="45.48684" lon="6.7713">
        <ele>3055</ele>
        <time>2011-03-16T10:07:29.975Z</time>
      </trkpt>
      <trkpt lat="45.48681" lon="6.77131">
        <ele>3052</ele>
        <time>2011-03-16T10:07:45.761Z</time>
      </trkpt>
      <trkpt lat="45.4868" lon="6.77138">
        <ele>3043</ele>
        <time>2011-03-16T10:08:01.719Z</time>
      </trkpt>
      <trkpt lat="45.4868" lon="6.7714">
        <ele>3043</ele>
        <time>2011-03-16T10:08:17.697Z</time>
      </trkpt>
      <trkpt lat="45.4868" lon="6.7714">
        <ele>3042</ele>
        <time>2011-03-16T10:08:32.704Z</time>
      </trkpt>
      <trkpt lat="45.48679" lon="6.7714">
        <ele>3041</ele>
        <time>2011-03-16T10:08:48.775Z</time>
      </trkpt>
      <trkpt lat="45.48681" lon="6.77142">
        <ele>3037</ele>
        <time>2011-03-16T10:09:04.000Z</time>
      </trkpt>
      <trkpt lat="45.4868" lon="6.77151">
        <ele>3036</ele>
        <time>2011-03-16T10:09:19.785Z</time>
      </trkpt>
      <trkpt lat="45.4868" lon="6.77184">
        <ele>3038</ele>
        <time>2011-03-16T10:09:35.708Z</time>
      </trkpt>
      <trkpt lat="45.48679" lon="6.77214">
        <ele>3043</ele>
        <time>2011-03-16T10:09:50.717Z</time>
      </trkpt>
      <trkpt lat="45.48677" lon="6.77252">
        <ele>3049</ele>
        <time>2011-03-16T10:10:05.723Z</time>
      </trkpt>
      <trkpt lat="45.48677" lon="6.77287">
        <ele>3052</ele>
        <time>2011-03-16T10:10:20.983Z</time>
      </trkpt>
      <trkpt lat="45.48677" lon="6.77326">
        <ele>3057</ele>
        <time>2011-03-16T10:10:36.000Z</time>
      </trkpt>
      <trkpt lat="45.48677" lon="6.77356">
        <ele>3059</ele>
        <time>2011-03-16T10:10:51.691Z</time>
      </trkpt>
      <trkpt lat="45.48676" lon="6.77387">
        <ele>3062</ele>
        <time>2011-03-16T10:11:06.999Z</time>
      </trkpt>
      <trkpt lat="45.48676" lon="6.77425">
        <ele>3068</ele>
        <time>2011-03-16T10:11:24.716Z</time>
      </trkpt>
      <trkpt lat="45.48675" lon="6.77455">
        <ele>3079</ele>
        <time>2011-03-16T10:11:39.920Z</time>
      </trkpt>
      <trkpt lat="45.48672" lon="6.77494">
        <ele>3096</ele>
        <time>2011-03-16T10:11:55.000Z</time>
      </trkpt>
      <trkpt lat="45.48671" lon="6.77531">
        <ele>3114</ele>
        <time>2011-03-16T10:12:10.710Z</time>
      </trkpt>
      <trkpt lat="45.48669" lon="6.77565">
        <ele>3128</ele>
        <time>2011-03-16T10:12:26.696Z</time>
      </trkpt>
      <trkpt lat="45.48667" lon="6.77603">
        <ele>3141</ele>
        <time>2011-03-16T10:12:42.708Z</time>
      </trkpt>
      <trkpt lat="45.48665" lon="6.77639">
        <ele>3152</ele>
        <time>2011-03-16T10:12:57.998Z</time>
      </trkpt>
      <trkpt lat="45.48664" lon="6.77671">
        <ele>3164</ele>
        <time>2011-03-16T10:13:13.724Z</time>
      </trkpt>
      <trkpt lat="45.48664" lon="6.77705">
        <ele>3178</ele>
        <time>2011-03-16T10:13:29.697Z</time>
      </trkpt>
      <trkpt lat="45.48663" lon="6.77735">
        <ele>3189</ele>
        <time>2011-03-16T10:13:44.992Z</time>
      </trkpt>
      <trkpt lat="45.48662" lon="6.77768">
        <ele>3193</ele>
        <time>2011-03-16T10:14:00.696Z</time>
      </trkpt>
      <trkpt lat="45.48669" lon="6.77789">
        <ele>3197</ele>
        <time>2011-03-16T10:14:15.740Z</time>
      </trkpt>
      <trkpt lat="45.48669" lon="6.77799">
        <ele>3203</ele>
        <time>2011-03-16T10:14:31.719Z</time>
      </trkpt>
      <trkpt lat="45.48675" lon="6.77807">
        <ele>3207</ele>
        <time>2011-03-16T10:14:47.703Z</time>
      </trkpt>
      <trkpt lat="45.48674" lon="6.77822">
        <ele>3215</ele>
        <time>2011-03-16T10:15:02.778Z</time>
      </trkpt>
      <trkpt lat="45.48675" lon="6.77823">
        <ele>3215</ele>
        <time>2011-03-16T10:15:18.730Z</time>
      </trkpt>
      <trkpt lat="45.48675" lon="6.77823">
        <ele>3215</ele>
        <time>2011-03-16T10:15:34.730Z</time>
      </trkpt>
      <trkpt lat="45.48683" lon="6.77837">
        <ele>3215</ele>
        <time>2011-03-16T10:15:50.715Z</time>
      </trkpt>
      <trkpt lat="45.48711" lon="6.77842">
        <ele>3211</ele>
        <time>2011-03-16T10:16:06.690Z</time>
      </trkpt>
      <trkpt lat="45.48731" lon="6.77795">
        <ele>3210</ele>
        <time>2011-03-16T10:16:21.716Z</time>
      </trkpt>
      <trkpt lat="45.48736" lon="6.77752">
        <ele>3205</ele>
        <time>2011-03-16T10:16:37.694Z</time>
      </trkpt>
      <trkpt lat="45.4875" lon="6.77693">
        <ele>3197</ele>
        <time>2011-03-16T10:16:53.000Z</time>
      </trkpt>
      <trkpt lat="45.48743" lon="6.7763">
        <ele>3186</ele>
        <time>2011-03-16T10:17:07.690Z</time>
      </trkpt>
      <trkpt lat="45.48734" lon="6.77558">
        <ele>3173</ele>
        <time>2011-03-16T10:17:19.999Z</time>
      </trkpt>
      <trkpt lat="45.48731" lon="6.77486">
        <ele>3165</ele>
        <time>2011-03-16T10:17:29.000Z</time>
      </trkpt>
      <trkpt lat="45.48745" lon="6.77419">
        <ele>3159</ele>
        <time>2011-03-16T10:17:36.718Z</time>
      </trkpt>
      <trkpt lat="45.48745" lon="6.77384">
        <ele>3148</ele>
        <time>2011-03-16T10:17:52.705Z</time>
      </trkpt>
      <trkpt lat="45.48743" lon="6.77382">
        <ele>3141</ele>
        <time>2011-03-16T10:18:08.703Z</time>
      </trkpt>
      <trkpt lat="45.48742" lon="6.7738">
        <ele>3140</ele>
        <time>2011-03-16T10:18:24.989Z</time>
      </trkpt>
      <trkpt lat="45.48729" lon="6.77347">
        <ele>3123</ele>
        <time>2011-03-16T10:18:40.694Z</time>
      </trkpt>
      <trkpt lat="45.48737" lon="6.77279">
        <ele>3117</ele>
        <time>2011-03-16T10:18:49.689Z</time>
      </trkpt>
      <trkpt lat="45.48742" lon="6.77206">
        <ele>3113</ele>
        <time>2011-03-16T10:18:55.688Z</time>
      </trkpt>
      <trkpt lat="45.48712" lon="6.77154">
        <ele>3096</ele>
        <time>2011-03-16T10:19:02.999Z</time>
      </trkpt>
      <trkpt lat="45.48684" lon="6.77141">
        <ele>3077</ele>
        <time>2011-03-16T10:19:18.701Z</time>
      </trkpt>
      <trkpt lat="45.48681" lon="6.77148">
        <ele>3072</ele>
        <time>2011-03-16T10:19:34.716Z</time>
      </trkpt>
      <trkpt lat="45.48678" lon="6.77178">
        <ele>3070</ele>
        <time>2011-03-16T10:19:49.731Z</time>
      </trkpt>
      <trkpt lat="45.48678" lon="6.77216">
        <ele>3070</ele>
        <time>2011-03-16T10:20:05.000Z</time>
      </trkpt>
      <trkpt lat="45.48679" lon="6.77251">
        <ele>3070</ele>
        <time>2011-03-16T10:20:20.754Z</time>
      </trkpt>
      <trkpt lat="45.48679" lon="6.77287">
        <ele>3071</ele>
        <time>2011-03-16T10:20:36.690Z</time>
      </trkpt>
      <trkpt lat="45.4868" lon="6.77321">
        <ele>3073</ele>
        <time>2011-03-16T10:20:51.706Z</time>
      </trkpt>
      <trkpt lat="45.48682" lon="6.77356">
        <ele>3076</ele>
        <time>2011-03-16T10:21:07.715Z</time>
      </trkpt>
      <trkpt lat="45.4868" lon="6.77387">
        <ele>3083</ele>
        <time>2011-03-16T10:21:22.999Z</time>
      </trkpt>
      <trkpt lat="45.48681" lon="6.77421">
        <ele>3090</ele>
        <time>2011-03-16T10:21:38.693Z</time>
      </trkpt>
      <trkpt lat="45.4868" lon="6.77456">
        <ele>3097</ele>
        <time>2011-03-16T10:21:54.688Z</time>
      </trkpt>
      <trkpt lat="45.48678" lon="6.77489">
        <ele>3107</ele>
        <time>2011-03-16T10:22:09.999Z</time>
      </trkpt>
      <trkpt lat="45.48677" lon="6.77524">
        <ele>3115</ele>
        <time>2011-03-16T10:22:25.998Z</time>
      </trkpt>
      <trkpt lat="45.48677" lon="6.77557">
        <ele>3123</ele>
        <time>2011-03-16T10:22:41.999Z</time>
      </trkpt>
      <trkpt lat="45.48673" lon="6.77593">
        <ele>3137</ele>
        <time>2011-03-16T10:22:57.998Z</time>
      </trkpt>
      <trkpt lat="45.48671" lon="6.77626">
        <ele>3149</ele>
        <time>2011-03-16T10:23:12.999Z</time>
      </trkpt>
      <trkpt lat="45.48673" lon="6.77661">
        <ele>3155</ele>
        <time>2011-03-16T10:23:28.999Z</time>
      </trkpt>
      <trkpt lat="45.48672" lon="6.77694">
        <ele>3166</ele>
        <time>2011-03-16T10:23:44.702Z</time>
      </trkpt>
      <trkpt lat="45.48668" lon="6.77724">
        <ele>3177</ele>
        <time>2011-03-16T10:24:00.697Z</time>
      </trkpt>
      <trkpt lat="45.48666" lon="6.77758">
        <ele>3189</ele>
        <time>2011-03-16T10:24:16.999Z</time>
      </trkpt>
      <trkpt lat="45.48672" lon="6.77801">
        <ele>3197</ele>
        <time>2011-03-16T10:24:32.944Z</time>
      </trkpt>
      <trkpt lat="45.48683" lon="6.7783">
        <ele>3202</ele>
        <time>2011-03-16T10:24:48.999Z</time>
      </trkpt>
      <trkpt lat="45.48691" lon="6.77846">
        <ele>3206</ele>
        <time>2011-03-16T10:25:04.703Z</time>
      </trkpt>
      <trkpt lat="45.48701" lon="6.77856">
        <ele>3206</ele>
        <time>2011-03-16T10:25:20.691Z</time>
      </trkpt>
      <trkpt lat="45.48744" lon="6.77859">
        <ele>3207</ele>
        <time>2011-03-16T10:25:36.000Z</time>
      </trkpt>
      <trkpt lat="45.48751" lon="6.77817">
        <ele>3208</ele>
        <time>2011-03-16T10:25:51.713Z</time>
      </trkpt>
      <trkpt lat="45.4875" lon="6.77815">
        <ele>3203</ele>
        <time>2011-03-16T10:26:07.735Z</time>
      </trkpt>
      <trkpt lat="45.48754" lon="6.77801">
        <ele>3203</ele>
        <time>2011-03-16T10:26:23.678Z</time>
      </trkpt>
      <trkpt lat="45.48793" lon="6.77757">
        <ele>3200</ele>
        <time>2011-03-16T10:26:33.683Z</time>
      </trkpt>
      <trkpt lat="45.48838" lon="6.77741">
        <ele>3198</ele>
        <time>2011-03-16T10:26:39.708Z</time>
      </trkpt>
      <trkpt lat="45.48885" lon="6.77721">
        <ele>3194</ele>
        <time>2011-03-16T10:26:47.998Z</time>
      </trkpt>
      <trkpt lat="45.48931" lon="6.77697">
        <ele>3193</ele>
        <time>2011-03-16T10:26:54.000Z</time>
      </trkpt>
      <trkpt lat="45.4897" lon="6.77656">
        <ele>3190</ele>
        <time>2011-03-16T10:27:03.678Z</time>
      </trkpt>
      <trkpt lat="45.49" lon="6.77604">
        <ele>3187</ele>
        <time>2011-03-16T10:27:12.683Z</time>
      </trkpt>
      <trkpt lat="45.49004" lon="6.77538">
        <ele>3180</ele>
        <time>2011-03-16T10:27:23.999Z</time>
      </trkpt>
      <trkpt lat="45.49006" lon="6.7747">
        <ele>3173</ele>
        <time>2011-03-16T10:27:33.989Z</time>
      </trkpt>
      <trkpt lat="45.49004" lon="6.77396">
        <ele>3170</ele>
        <time>2011-03-16T10:27:40.999Z</time>
      </trkpt>
      <trkpt lat="45.49007" lon="6.77331">
        <ele>3165</ele>
        <time>2011-03-16T10:27:45.998Z</time>
      </trkpt>
      <trkpt lat="45.49008" lon="6.77266">
        <ele>3160</ele>
        <time>2011-03-16T10:27:51.999Z</time>
      </trkpt>
      <trkpt lat="45.49005" lon="6.77201">
        <ele>3154</ele>
        <time>2011-03-16T10:27:56.999Z</time>
      </trkpt>
      <trkpt lat="45.49009" lon="6.77134">
        <ele>3151</ele>
        <time>2011-03-16T10:28:01.711Z</time>
      </trkpt>
      <trkpt lat="45.49013" lon="6.77105">
        <ele>3131</ele>
        <time>2011-03-16T10:28:16.999Z</time>
      </trkpt>
      <trkpt lat="45.49018" lon="6.77116">
        <ele>3118</ele>
        <time>2011-03-16T10:28:34.863Z</time>
      </trkpt>
      <trkpt lat="45.49013" lon="6.77123">
        <ele>3107</ele>
        <time>2011-03-16T10:28:50.718Z</time>
      </trkpt>
      <trkpt lat="45.4901" lon="6.77128">
        <ele>3095</ele>
        <time>2011-03-16T10:29:06.705Z</time>
      </trkpt>
      <trkpt lat="45.49013" lon="6.77129">
        <ele>3084</ele>
        <time>2011-03-16T10:29:22.694Z</time>
      </trkpt>
      <trkpt lat="45.49012" lon="6.77128">
        <ele>3076</ele>
        <time>2011-03-16T10:29:38.685Z</time>
      </trkpt>
      <trkpt lat="45.49014" lon="6.77131">
        <ele>3072</ele>
        <time>2011-03-16T10:29:53.695Z</time>
      </trkpt>
      <trkpt lat="45.49016" lon="6.77131">
        <ele>3070</ele>
        <time>2011-03-16T10:30:08.710Z</time>
      </trkpt>
      <trkpt lat="45.49026" lon="6.77137">
        <ele>3066</ele>
        <time>2011-03-16T10:30:24.000Z</time>
      </trkpt>
      <trkpt lat="45.49055" lon="6.7716">
        <ele>3066</ele>
        <time>2011-03-16T10:30:39.706Z</time>
      </trkpt>
      <trkpt lat="45.49087" lon="6.77185">
        <ele>3064</ele>
        <time>2011-03-16T10:30:55.689Z</time>
      </trkpt>
      <trkpt lat="45.49113" lon="6.77207">
        <ele>3067</ele>
        <time>2011-03-16T10:31:11.686Z</time>
      </trkpt>
      <trkpt lat="45.49139" lon="6.77227">
        <ele>3069</ele>
        <time>2011-03-16T10:31:26.997Z</time>
      </trkpt>
      <trkpt lat="45.49158" lon="6.77239">
        <ele>3072</ele>
        <time>2011-03-16T10:31:42.695Z</time>
      </trkpt>
      <trkpt lat="45.49172" lon="6.77248">
        <ele>3074</ele>
        <time>2011-03-16T10:31:57.994Z</time>
      </trkpt>
      <trkpt lat="45.49186" lon="6.77255">
        <ele>3076</ele>
        <time>2011-03-16T10:32:13.671Z</time>
      </trkpt>
      <trkpt lat="45.492" lon="6.77259">
        <ele>3077</ele>
        <time>2011-03-16T10:32:28.996Z</time>
      </trkpt>
      <trkpt lat="45.49216" lon="6.77292">
        <ele>3081</ele>
        <time>2011-03-16T10:32:44.684Z</time>
      </trkpt>
      <trkpt lat="45.49239" lon="6.77314">
        <ele>3084</ele>
        <time>2011-03-16T10:33:00.680Z</time>
      </trkpt>
      <trkpt lat="45.49268" lon="6.77333">
        <ele>3088</ele>
        <time>2011-03-16T10:33:15.999Z</time>
      </trkpt>
      <trkpt lat="45.49299" lon="6.77356">
        <ele>3095</ele>
        <time>2011-03-16T10:33:31.999Z</time>
      </trkpt>
      <trkpt lat="45.49327" lon="6.77376">
        <ele>3105</ele>
        <time>2011-03-16T10:33:47.860Z</time>
      </trkpt>
      <trkpt lat="45.49354" lon="6.7739">
        <ele>3123</ele>
        <time>2011-03-16T10:34:03.679Z</time>
      </trkpt>
      <trkpt lat="45.49379" lon="6.77401">
        <ele>3140</ele>
        <time>2011-03-16T10:34:18.689Z</time>
      </trkpt>
      <trkpt lat="45.49405" lon="6.77438">
        <ele>3141</ele>
        <time>2011-03-16T10:34:34.689Z</time>
      </trkpt>
      <trkpt lat="45.49406" lon="6.77443">
        <ele>3141</ele>
        <time>2011-03-16T10:34:50.680Z</time>
      </trkpt>
      <trkpt lat="45.49405" lon="6.77447">
        <ele>3144</ele>
        <time>2011-03-16T10:35:05.706Z</time>
      </trkpt>
      <trkpt lat="45.49406" lon="6.77446">
        <ele>3148</ele>
        <time>2011-03-16T10:35:20.711Z</time>
      </trkpt>
      <trkpt lat="45.49407" lon="6.7745">
        <ele>3147</ele>
        <time>2011-03-16T10:35:35.999Z</time>
      </trkpt>
      <trkpt lat="45.49424" lon="6.77495">
        <ele>3145</ele>
        <time>2011-03-16T10:35:51.694Z</time>
      </trkpt>
      <trkpt lat="45.49458" lon="6.77509">
        <ele>3143</ele>
        <time>2011-03-16T10:36:06.999Z</time>
      </trkpt>
      <trkpt lat="45.49506" lon="6.775">
        <ele>3136</ele>
        <time>2011-03-16T10:36:21.682Z</time>
      </trkpt>
      <trkpt lat="45.49521" lon="6.77439">
        <ele>3133</ele>
        <time>2011-03-16T10:36:32.680Z</time>
      </trkpt>
      <trkpt lat="45.49528" lon="6.77364">
        <ele>3131</ele>
        <time>2011-03-16T10:36:38.999Z</time>
      </trkpt>
      <trkpt lat="45.49546" lon="6.77295">
        <ele>3129</ele>
        <time>2011-03-16T10:36:43.000Z</time>
      </trkpt>
      <trkpt lat="45.49559" lon="6.77232">
        <ele>3127</ele>
        <time>2011-03-16T10:36:50.704Z</time>
      </trkpt>
      <trkpt lat="45.49596" lon="6.77183">
        <ele>3122</ele>
        <time>2011-03-16T10:36:57.680Z</time>
      </trkpt>
      <trkpt lat="45.49639" lon="6.77154">
        <ele>3116</ele>
        <time>2011-03-16T10:37:09.681Z</time>
      </trkpt>
      <trkpt lat="45.49673" lon="6.77132">
        <ele>3111</ele>
        <time>2011-03-16T10:37:24.687Z</time>
      </trkpt>
      <trkpt lat="45.49708" lon="6.77085">
        <ele>3105</ele>
        <time>2011-03-16T10:37:35.701Z</time>
      </trkpt>
      <trkpt lat="45.49718" lon="6.77019">
        <ele>3103</ele>
        <time>2011-03-16T10:37:44.680Z</time>
      </trkpt>
      <trkpt lat="45.49684" lon="6.76976">
        <ele>3088</ele>
        <time>2011-03-16T10:37:56.704Z</time>
      </trkpt>
      <trkpt lat="45.49648" lon="6.77024">
        <ele>3079</ele>
        <time>2011-03-16T10:38:05.811Z</time>
      </trkpt>
      <trkpt lat="45.49606" lon="6.7705">
        <ele>3071</ele>
        <time>2011-03-16T10:38:13.999Z</time>
      </trkpt>
      <trkpt lat="45.4956" lon="6.77065">
        <ele>3065</ele>
        <time>2011-03-16T10:38:21.982Z</time>
      </trkpt>
      <trkpt lat="45.49516" lon="6.77083">
        <ele>3057</ele>
        <time>2011-03-16T10:38:32.999Z</time>
      </trkpt>
      <trkpt lat="45.49517" lon="6.77085">
        <ele>3046</ele>
        <time>2011-03-16T10:38:48.982Z</time>
      </trkpt>
      <trkpt lat="45.49502" lon="6.77088">
        <ele>3039</ele>
        <time>2011-03-16T10:39:03.999Z</time>
      </trkpt>
      <trkpt lat="45.49452" lon="6.77103">
        <ele>3034</ele>
        <time>2011-03-16T10:39:14.971Z</time>
      </trkpt>
      <trkpt lat="45.49407" lon="6.77125">
        <ele>3029</ele>
        <time>2011-03-16T10:39:21.991Z</time>
      </trkpt>
      <trkpt lat="45.49363" lon="6.77159">
        <ele>3026</ele>
        <time>2011-03-16T10:39:28.867Z</time>
      </trkpt>
      <trkpt lat="45.49318" lon="6.77142">
        <ele>3023</ele>
        <time>2011-03-16T10:39:36.667Z</time>
      </trkpt>
      <trkpt lat="45.49318" lon="6.77132">
        <ele>3015</ele>
        <time>2011-03-16T10:39:51.700Z</time>
      </trkpt>
      <trkpt lat="45.49321" lon="6.77132">
        <ele>3010</ele>
        <time>2011-03-16T10:40:06.705Z</time>
      </trkpt>
      <trkpt lat="45.49322" lon="6.77132">
        <ele>3007</ele>
        <time>2011-03-16T10:40:21.999Z</time>
      </trkpt>
      <trkpt lat="45.49302" lon="6.77091">
        <ele>3005</ele>
        <time>2011-03-16T10:40:37.702Z</time>
      </trkpt>
      <trkpt lat="45.49348" lon="6.77066">
        <ele>3003</ele>
        <time>2011-03-16T10:40:44.673Z</time>
      </trkpt>
      <trkpt lat="45.49381" lon="6.77013">
        <ele>3003</ele>
        <time>2011-03-16T10:40:50.670Z</time>
      </trkpt>
      <trkpt lat="45.49414" lon="6.76958">
        <ele>3003</ele>
        <time>2011-03-16T10:40:56.984Z</time>
      </trkpt>
      <trkpt lat="45.49447" lon="6.76902">
        <ele>3002</ele>
        <time>2011-03-16T10:41:02.734Z</time>
      </trkpt>
      <trkpt lat="45.49479" lon="6.76852">
        <ele>2999</ele>
        <time>2011-03-16T10:41:08.738Z</time>
      </trkpt>
      <trkpt lat="45.49487" lon="6.76788">
        <ele>2997</ele>
        <time>2011-03-16T10:41:16.000Z</time>
      </trkpt>
      <trkpt lat="45.49471" lon="6.76719">
        <ele>2995</ele>
        <time>2011-03-16T10:41:23.000Z</time>
      </trkpt>
      <trkpt lat="45.49448" lon="6.76654">
        <ele>2988</ele>
        <time>2011-03-16T10:41:30.000Z</time>
      </trkpt>
      <trkpt lat="45.49421" lon="6.76601">
        <ele>2982</ele>
        <time>2011-03-16T10:41:37.695Z</time>
      </trkpt>
      <trkpt lat="45.49392" lon="6.76536">
        <ele>2972</ele>
        <time>2011-03-16T10:41:45.893Z</time>
      </trkpt>
      <trkpt lat="45.49346" lon="6.76506">
        <ele>2962</ele>
        <time>2011-03-16T10:41:50.706Z</time>
      </trkpt>
      <trkpt lat="45.49301" lon="6.7648">
        <ele>2952</ele>
        <time>2011-03-16T10:41:55.680Z</time>
      </trkpt>
      <trkpt lat="45.49255" lon="6.76448">
        <ele>2940</ele>
        <time>2011-03-16T10:42:02.677Z</time>
      </trkpt>
      <trkpt lat="45.49208" lon="6.76425">
        <ele>2923</ele>
        <time>2011-03-16T10:42:08.683Z</time>
      </trkpt>
      <trkpt lat="45.49164" lon="6.76414">
        <ele>2912</ele>
        <time>2011-03-16T10:42:14.682Z</time>
      </trkpt>
      <trkpt lat="45.49119" lon="6.7639">
        <ele>2903</ele>
        <time>2011-03-16T10:42:20.693Z</time>
      </trkpt>
      <trkpt lat="45.49082" lon="6.76349">
        <ele>2895</ele>
        <time>2011-03-16T10:42:27.686Z</time>
      </trkpt>
      <trkpt lat="45.49093" lon="6.76285">
        <ele>2888</ele>
        <time>2011-03-16T10:42:36.684Z</time>
      </trkpt>
      <trkpt lat="45.4914" lon="6.7624">
        <ele>2888</ele>
        <time>2011-03-16T10:42:43.989Z</time>
      </trkpt>
      <trkpt lat="45.49165" lon="6.76182">
        <ele>2885</ele>
        <time>2011-03-16T10:42:49.694Z</time>
      </trkpt>
      <trkpt lat="45.49188" lon="6.76122">
        <ele>2884</ele>
        <time>2011-03-16T10:42:54.686Z</time>
      </trkpt>
      <trkpt lat="45.49212" lon="6.76066">
        <ele>2882</ele>
        <time>2011-03-16T10:42:58.693Z</time>
      </trkpt>
      <trkpt lat="45.49232" lon="6.75989">
        <ele>2882</ele>
        <time>2011-03-16T10:43:02.671Z</time>
      </trkpt>
      <trkpt lat="45.49237" lon="6.75914">
        <ele>2879</ele>
        <time>2011-03-16T10:43:06.669Z</time>
      </trkpt>
      <trkpt lat="45.49229" lon="6.7584">
        <ele>2872</ele>
        <time>2011-03-16T10:43:13.999Z</time>
      </trkpt>
      <trkpt lat="45.49227" lon="6.75765">
        <ele>2867</ele>
        <time>2011-03-16T10:43:20.670Z</time>
      </trkpt>
      <trkpt lat="45.49228" lon="6.75694">
        <ele>2862</ele>
        <time>2011-03-16T10:43:26.673Z</time>
      </trkpt>
      <trkpt lat="45.49217" lon="6.75631">
        <ele>2852</ele>
        <time>2011-03-16T10:43:33.687Z</time>
      </trkpt>
      <trkpt lat="45.49207" lon="6.75563">
        <ele>2848</ele>
        <time>2011-03-16T10:43:39.671Z</time>
      </trkpt>
      <trkpt lat="45.492" lon="6.75492">
        <ele>2845</ele>
        <time>2011-03-16T10:43:44.999Z</time>
      </trkpt>
      <trkpt lat="45.49184" lon="6.75424">
        <ele>2839</ele>
        <time>2011-03-16T10:43:49.999Z</time>
      </trkpt>
      <trkpt lat="45.49168" lon="6.75364">
        <ele>2833</ele>
        <time>2011-03-16T10:43:54.999Z</time>
      </trkpt>
      <trkpt lat="45.49166" lon="6.75289">
        <ele>2829</ele>
        <time>2011-03-16T10:44:00.677Z</time>
      </trkpt>
      <trkpt lat="45.49171" lon="6.75219">
        <ele>2822</ele>
        <time>2011-03-16T10:44:07.999Z</time>
      </trkpt>
      <trkpt lat="45.49186" lon="6.75153">
        <ele>2818</ele>
        <time>2011-03-16T10:44:15.996Z</time>
      </trkpt>
      <trkpt lat="45.49197" lon="6.75087">
        <ele>2815</ele>
        <time>2011-03-16T10:44:20.997Z</time>
      </trkpt>
      <trkpt lat="45.49199" lon="6.75018">
        <ele>2808</ele>
        <time>2011-03-16T10:44:25.999Z</time>
      </trkpt>
      <trkpt lat="45.49185" lon="6.74945">
        <ele>2799</ele>
        <time>2011-03-16T10:44:31.995Z</time>
      </trkpt>
      <trkpt lat="45.49149" lon="6.7489">
        <ele>2786</ele>
        <time>2011-03-16T10:44:37.976Z</time>
      </trkpt>
      <trkpt lat="45.49141" lon="6.74851">
        <ele>2751</ele>
        <time>2011-03-16T10:44:53.827Z</time>
      </trkpt>
      <trkpt lat="45.49141" lon="6.74873">
        <ele>2716</ele>
        <time>2011-03-16T10:45:08.999Z</time>
      </trkpt>
      <trkpt lat="45.4914" lon="6.74872">
        <ele>2706</ele>
        <time>2011-03-16T10:45:24.713Z</time>
      </trkpt>
      <trkpt lat="45.49136" lon="6.74835">
        <ele>2704</ele>
        <time>2011-03-16T10:45:40.668Z</time>
      </trkpt>
      <trkpt lat="45.49146" lon="6.74766">
        <ele>2701</ele>
        <time>2011-03-16T10:45:46.704Z</time>
      </trkpt>
      <trkpt lat="45.49158" lon="6.74703">
        <ele>2696</ele>
        <time>2011-03-16T10:45:52.673Z</time>
      </trkpt>
      <trkpt lat="45.49194" lon="6.74653">
        <ele>2679</ele>
        <time>2011-03-16T10:45:59.999Z</time>
      </trkpt>
      <trkpt lat="45.4924" lon="6.74621">
        <ele>2665</ele>
        <time>2011-03-16T10:46:05.000Z</time>
      </trkpt>
      <trkpt lat="45.49264" lon="6.74564">
        <ele>2662</ele>
        <time>2011-03-16T10:46:10.674Z</time>
      </trkpt>
      <trkpt lat="45.49282" lon="6.74503">
        <ele>2661</ele>
        <time>2011-03-16T10:46:15.695Z</time>
      </trkpt>
      <trkpt lat="45.49321" lon="6.74451">
        <ele>2653</ele>
        <time>2011-03-16T10:46:21.691Z</time>
      </trkpt>
      <trkpt lat="45.49353" lon="6.7438">
        <ele>2644</ele>
        <time>2011-03-16T10:46:28.999Z</time>
      </trkpt>
      <trkpt lat="45.49377" lon="6.7432">
        <ele>2640</ele>
        <time>2011-03-16T10:46:33.000Z</time>
      </trkpt>
      <trkpt lat="45.49403" lon="6.74261">
        <ele>2634</ele>
        <time>2011-03-16T10:46:37.692Z</time>
      </trkpt>
      <trkpt lat="45.49441" lon="6.74225">
        <ele>2624</ele>
        <time>2011-03-16T10:46:42.693Z</time>
      </trkpt>
      <trkpt lat="45.49491" lon="6.74202">
        <ele>2611</ele>
        <time>2011-03-16T10:46:47.679Z</time>
      </trkpt>
      <trkpt lat="45.49538" lon="6.74159">
        <ele>2605</ele>
        <time>2011-03-16T10:46:52.681Z</time>
      </trkpt>
      <trkpt lat="45.49592" lon="6.74146">
        <ele>2591</ele>
        <time>2011-03-16T10:46:57.684Z</time>
      </trkpt>
      <trkpt lat="45.49639" lon="6.74146">
        <ele>2577</ele>
        <time>2011-03-16T10:47:01.999Z</time>
      </trkpt>
      <trkpt lat="45.49688" lon="6.74149">
        <ele>2563</ele>
        <time>2011-03-16T10:47:05.989Z</time>
      </trkpt>
      <trkpt lat="45.49734" lon="6.74158">
        <ele>2525</ele>
        <time>2011-03-16T10:47:11.995Z</time>
      </trkpt>
      <trkpt lat="45.4978" lon="6.74171">
        <ele>2499</ele>
        <time>2011-03-16T10:47:19.999Z</time>
      </trkpt>
      <trkpt lat="45.49791" lon="6.74188">
        <ele>2478</ele>
        <time>2011-03-16T10:47:35.684Z</time>
      </trkpt>
      <trkpt lat="45.49783" lon="6.7418">
        <ele>2459</ele>
        <time>2011-03-16T10:47:50.996Z</time>
      </trkpt>
      <trkpt lat="45.4978" lon="6.74186">
        <ele>2433</ele>
        <time>2011-03-16T10:48:05.999Z</time>
      </trkpt>
      <trkpt lat="45.49772" lon="6.74183">
        <ele>2415</ele>
        <time>2011-03-16T10:48:21.995Z</time>
      </trkpt>
      <trkpt lat="45.49788" lon="6.74193">
        <ele>2403</ele>
        <time>2011-03-16T10:48:36.999Z</time>
      </trkpt>
      <trkpt lat="45.49833" lon="6.74216">
        <ele>2395</ele>
        <time>2011-03-16T10:48:43.999Z</time>
      </trkpt>
      <trkpt lat="45.49887" lon="6.74223">
        <ele>2390</ele>
        <time>2011-03-16T10:48:49.999Z</time>
      </trkpt>
      <trkpt lat="45.49933" lon="6.74219">
        <ele>2384</ele>
        <time>2011-03-16T10:48:55.999Z</time>
      </trkpt>
      <trkpt lat="45.49935" lon="6.74231">
        <ele>2359</ele>
        <time>2011-03-16T10:49:11.999Z</time>
      </trkpt>
      <trkpt lat="45.49933" lon="6.74231">
        <ele>2350</ele>
        <time>2011-03-16T10:49:27.900Z</time>
      </trkpt>
      <trkpt lat="45.4993" lon="6.7423">
        <ele>2347</ele>
        <time>2011-03-16T10:49:43.695Z</time>
      </trkpt>
      <trkpt lat="45.49929" lon="6.74231">
        <ele>2344</ele>
        <time>2011-03-16T10:49:59.687Z</time>
      </trkpt>
      <trkpt lat="45.49932" lon="6.74234">
        <ele>2337</ele>
        <time>2011-03-16T10:50:14.700Z</time>
      </trkpt>
      <trkpt lat="45.49931" lon="6.74237">
        <ele>2335</ele>
        <time>2011-03-16T10:50:30.673Z</time>
      </trkpt>
      <trkpt lat="45.49932" lon="6.74237">
        <ele>2332</ele>
        <time>2011-03-16T10:50:45.685Z</time>
      </trkpt>
      <trkpt lat="45.49928" lon="6.7424">
        <ele>2329</ele>
        <time>2011-03-16T10:51:01.700Z</time>
      </trkpt>
      <trkpt lat="45.49907" lon="6.74263">
        <ele>2330</ele>
        <time>2011-03-16T10:51:17.677Z</time>
      </trkpt>
      <trkpt lat="45.49884" lon="6.74294">
        <ele>2335</ele>
        <time>2011-03-16T10:51:33.677Z</time>
      </trkpt>
      <trkpt lat="45.49861" lon="6.74326">
        <ele>2338</ele>
        <time>2011-03-16T10:51:48.709Z</time>
      </trkpt>
      <trkpt lat="45.49837" lon="6.7436">
        <ele>2340</ele>
        <time>2011-03-16T10:52:04.672Z</time>
      </trkpt>
      <trkpt lat="45.49813" lon="6.74389">
        <ele>2346</ele>
        <time>2011-03-16T10:52:19.685Z</time>
      </trkpt>
      <trkpt lat="45.49791" lon="6.74418">
        <ele>2354</ele>
        <time>2011-03-16T10:52:35.673Z</time>
      </trkpt>
      <trkpt lat="45.49769" lon="6.74445">
        <ele>2358</ele>
        <time>2011-03-16T10:52:50.693Z</time>
      </trkpt>
      <trkpt lat="45.49748" lon="6.74471">
        <ele>2370</ele>
        <time>2011-03-16T10:53:06.676Z</time>
      </trkpt>
      <trkpt lat="45.49729" lon="6.74495">
        <ele>2382</ele>
        <time>2011-03-16T10:53:21.703Z</time>
      </trkpt>
      <trkpt lat="45.49708" lon="6.74521">
        <ele>2397</ele>
        <time>2011-03-16T10:53:37.672Z</time>
      </trkpt>
      <trkpt lat="45.49686" lon="6.74546">
        <ele>2409</ele>
        <time>2011-03-16T10:53:52.695Z</time>
      </trkpt>
      <trkpt lat="45.49664" lon="6.74576">
        <ele>2431</ele>
        <time>2011-03-16T10:54:08.669Z</time>
      </trkpt>
      <trkpt lat="45.49641" lon="6.74605">
        <ele>2448</ele>
        <time>2011-03-16T10:54:24.685Z</time>
      </trkpt>
      <trkpt lat="45.4962" lon="6.74632">
        <ele>2466</ele>
        <time>2011-03-16T10:54:40.999Z</time>
      </trkpt>
      <trkpt lat="45.49611" lon="6.74645">
        <ele>2484</ele>
        <time>2011-03-16T10:54:56.694Z</time>
      </trkpt>
      <trkpt lat="45.49595" lon="6.74668">
        <ele>2498</ele>
        <time>2011-03-16T10:55:12.671Z</time>
      </trkpt>
      <trkpt lat="45.49572" lon="6.74697">
        <ele>2512</ele>
        <time>2011-03-16T10:55:28.678Z</time>
      </trkpt>
      <trkpt lat="45.4955" lon="6.74726">
        <ele>2523</ele>
        <time>2011-03-16T10:55:43.680Z</time>
      </trkpt>
      <trkpt lat="45.49526" lon="6.74756">
        <ele>2533</ele>
        <time>2011-03-16T10:55:59.691Z</time>
      </trkpt>
      <trkpt lat="45.49503" lon="6.74785">
        <ele>2546</ele>
        <time>2011-03-16T10:56:15.671Z</time>
      </trkpt>
      <trkpt lat="45.49492" lon="6.748">
        <ele>2555</ele>
        <time>2011-03-16T10:56:30.699Z</time>
      </trkpt>
      <trkpt lat="45.49476" lon="6.7482">
        <ele>2564</ele>
        <time>2011-03-16T10:56:46.669Z</time>
      </trkpt>
      <trkpt lat="45.49455" lon="6.74847">
        <ele>2570</ele>
        <time>2011-03-16T10:57:01.985Z</time>
      </trkpt>
      <trkpt lat="45.49434" lon="6.74875">
        <ele>2577</ele>
        <time>2011-03-16T10:57:16.999Z</time>
      </trkpt>
      <trkpt lat="45.4941" lon="6.74906">
        <ele>2583</ele>
        <time>2011-03-16T10:57:32.996Z</time>
      </trkpt>
      <trkpt lat="45.49389" lon="6.74933">
        <ele>2590</ele>
        <time>2011-03-16T10:57:47.999Z</time>
      </trkpt>
      <trkpt lat="45.49366" lon="6.74966">
        <ele>2594</ele>
        <time>2011-03-16T10:58:03.999Z</time>
      </trkpt>
      <trkpt lat="45.49363" lon="6.74975">
        <ele>2603</ele>
        <time>2011-03-16T10:58:19.999Z</time>
      </trkpt>
      <trkpt lat="45.4936" lon="6.74978">
        <ele>2610</ele>
        <time>2011-03-16T10:58:35.991Z</time>
      </trkpt>
      <trkpt lat="45.4936" lon="6.74979">
        <ele>2612</ele>
        <time>2011-03-16T10:58:50.999Z</time>
      </trkpt>
      <trkpt lat="45.4936" lon="6.7498">
        <ele>2614</ele>
        <time>2011-03-16T10:59:06.999Z</time>
      </trkpt>
      <trkpt lat="45.4936" lon="6.7498">
        <ele>2615</ele>
        <time>2011-03-16T10:59:22.999Z</time>
      </trkpt>
      <trkpt lat="45.4936" lon="6.74979">
        <ele>2616</ele>
        <time>2011-03-16T10:59:38.998Z</time>
      </trkpt>
      <trkpt lat="45.49359" lon="6.7498">
        <ele>2620</ele>
        <time>2011-03-16T10:59:54.848Z</time>
      </trkpt>
      <trkpt lat="45.49358" lon="6.7498">
        <ele>2621</ele>
        <time>2011-03-16T11:00:10.677Z</time>
      </trkpt>
      <trkpt lat="45.49309" lon="6.74961">
        <ele>2616</ele>
        <time>2011-03-16T11:00:22.696Z</time>
      </trkpt>
      <trkpt lat="45.49261" lon="6.74936">
        <ele>2614</ele>
        <time>2011-03-16T11:00:29.666Z</time>
      </trkpt>
      <trkpt lat="45.49214" lon="6.74914">
        <ele>2610</ele>
        <time>2011-03-16T11:00:35.996Z</time>
      </trkpt>
      <trkpt lat="45.49162" lon="6.74905">
        <ele>2606</ele>
        <time>2011-03-16T11:00:42.000Z</time>
      </trkpt>
      <trkpt lat="45.49121" lon="6.74865">
        <ele>2601</ele>
        <time>2011-03-16T11:00:52.686Z</time>
      </trkpt>
      <trkpt lat="45.49125" lon="6.74796">
        <ele>2600</ele>
        <time>2011-03-16T11:00:59.670Z</time>
      </trkpt>
      <trkpt lat="45.49131" lon="6.74727">
        <ele>2599</ele>
        <time>2011-03-16T11:01:05.999Z</time>
      </trkpt>
      <trkpt lat="45.4915" lon="6.74668">
        <ele>2598</ele>
        <time>2011-03-16T11:01:11.999Z</time>
      </trkpt>
      <trkpt lat="45.49195" lon="6.74639">
        <ele>2590</ele>
        <time>2011-03-16T11:01:18.998Z</time>
      </trkpt>
      <trkpt lat="45.4923" lon="6.74583">
        <ele>2586</ele>
        <time>2011-03-16T11:01:25.998Z</time>
      </trkpt>
      <trkpt lat="45.49262" lon="6.74524">
        <ele>2583</ele>
        <time>2011-03-16T11:01:31.999Z</time>
      </trkpt>
      <trkpt lat="45.49297" lon="6.74468">
        <ele>2579</ele>
        <time>2011-03-16T11:01:37.988Z</time>
      </trkpt>
      <trkpt lat="45.4933" lon="6.74422">
        <ele>2576</ele>
        <time>2011-03-16T11:01:42.999Z</time>
      </trkpt>
      <trkpt lat="45.49347" lon="6.74359">
        <ele>2573</ele>
        <time>2011-03-16T11:01:47.996Z</time>
      </trkpt>
      <trkpt lat="45.49368" lon="6.74303">
        <ele>2572</ele>
        <time>2011-03-16T11:01:51.809Z</time>
      </trkpt>
      <trkpt lat="45.49396" lon="6.74249">
        <ele>2570</ele>
        <time>2011-03-16T11:01:55.670Z</time>
      </trkpt>
      <trkpt lat="45.49448" lon="6.74231">
        <ele>2563</ele>
        <time>2011-03-16T11:02:00.673Z</time>
      </trkpt>
      <trkpt lat="45.49497" lon="6.74192">
        <ele>2561</ele>
        <time>2011-03-16T11:02:05.703Z</time>
      </trkpt>
      <trkpt lat="45.4955" lon="6.74172">
        <ele>2558</ele>
        <time>2011-03-16T11:02:09.699Z</time>
      </trkpt>
      <trkpt lat="45.49603" lon="6.74167">
        <ele>2553</ele>
        <time>2011-03-16T11:02:13.676Z</time>
      </trkpt>
      <trkpt lat="45.49648" lon="6.74167">
        <ele>2548</ele>
        <time>2011-03-16T11:02:16.672Z</time>
      </trkpt>
      <trkpt lat="45.49694" lon="6.74169">
        <ele>2543</ele>
        <time>2011-03-16T11:02:19.999Z</time>
      </trkpt>
      <trkpt lat="45.49753" lon="6.74183">
        <ele>2534</ele>
        <time>2011-03-16T11:02:24.999Z</time>
      </trkpt>
      <trkpt lat="45.49798" lon="6.74183">
        <ele>2518</ele>
        <time>2011-03-16T11:02:30.677Z</time>
      </trkpt>
      <trkpt lat="45.49837" lon="6.74218">
        <ele>2490</ele>
        <time>2011-03-16T11:02:38.682Z</time>
      </trkpt>
      <trkpt lat="45.49882" lon="6.74234">
        <ele>2484</ele>
        <time>2011-03-16T11:02:43.668Z</time>
      </trkpt>
      <trkpt lat="45.49937" lon="6.7424">
        <ele>2478</ele>
        <time>2011-03-16T11:02:48.874Z</time>
      </trkpt>
      <trkpt lat="45.49945" lon="6.74231">
        <ele>2416</ele>
        <time>2011-03-16T11:03:04.685Z</time>
      </trkpt>
      <trkpt lat="45.49935" lon="6.74238">
        <ele>2388</ele>
        <time>2011-03-16T11:03:20.989Z</time>
      </trkpt>
      <trkpt lat="45.49929" lon="6.7424">
        <ele>2372</ele>
        <time>2011-03-16T11:03:36.677Z</time>
      </trkpt>
      <trkpt lat="45.49928" lon="6.74244">
        <ele>2366</ele>
        <time>2011-03-16T11:03:51.686Z</time>
      </trkpt>
      <trkpt lat="45.49926" lon="6.74252">
        <ele>2359</ele>
        <time>2011-03-16T11:04:06.916Z</time>
      </trkpt>
      <trkpt lat="45.49921" lon="6.74258">
        <ele>2352</ele>
        <time>2011-03-16T11:04:22.741Z</time>
      </trkpt>
      <trkpt lat="45.49897" lon="6.74289">
        <ele>2351</ele>
        <time>2011-03-16T11:04:38.677Z</time>
      </trkpt>
      <trkpt lat="45.49876" lon="6.74317">
        <ele>2351</ele>
        <time>2011-03-16T11:04:53.684Z</time>
      </trkpt>
      <trkpt lat="45.49856" lon="6.74342">
        <ele>2352</ele>
        <time>2011-03-16T11:05:09.999Z</time>
      </trkpt>
      <trkpt lat="45.49831" lon="6.74373">
        <ele>2354</ele>
        <time>2011-03-16T11:05:25.675Z</time>
      </trkpt>
      <trkpt lat="45.49808" lon="6.74402">
        <ele>2364</ele>
        <time>2011-03-16T11:05:40.999Z</time>
      </trkpt>
      <trkpt lat="45.49781" lon="6.74434">
        <ele>2373</ele>
        <time>2011-03-16T11:05:56.682Z</time>
      </trkpt>
      <trkpt lat="45.49756" lon="6.74466">
        <ele>2382</ele>
        <time>2011-03-16T11:06:11.997Z</time>
      </trkpt>
      <trkpt lat="45.4973" lon="6.74497">
        <ele>2395</ele>
        <time>2011-03-16T11:06:27.692Z</time>
      </trkpt>
      <trkpt lat="45.49727" lon="6.74503">
        <ele>2423</ele>
        <time>2011-03-16T11:06:42.999Z</time>
      </trkpt>
      <trkpt lat="45.49708" lon="6.74531">
        <ele>2437</ele>
        <time>2011-03-16T11:06:58.674Z</time>
      </trkpt>
      <trkpt lat="45.49685" lon="6.74558">
        <ele>2454</ele>
        <time>2011-03-16T11:07:14.678Z</time>
      </trkpt>
      <trkpt lat="45.49662" lon="6.74586">
        <ele>2468</ele>
        <time>2011-03-16T11:07:30.666Z</time>
      </trkpt>
      <trkpt lat="45.49642" lon="6.74612">
        <ele>2483</ele>
        <time>2011-03-16T11:07:45.689Z</time>
      </trkpt>
      <trkpt lat="45.49621" lon="6.74639">
        <ele>2499</ele>
        <time>2011-03-16T11:08:01.668Z</time>
      </trkpt>
      <trkpt lat="45.496" lon="6.74667">
        <ele>2515</ele>
        <time>2011-03-16T11:08:17.675Z</time>
      </trkpt>
      <trkpt lat="45.49578" lon="6.74695">
        <ele>2525</ele>
        <time>2011-03-16T11:08:32.999Z</time>
      </trkpt>
      <trkpt lat="45.49553" lon="6.74725">
        <ele>2536</ele>
        <time>2011-03-16T11:08:48.999Z</time>
      </trkpt>
      <trkpt lat="45.4953" lon="6.74756">
        <ele>2546</ele>
        <time>2011-03-16T11:09:04.962Z</time>
      </trkpt>
      <trkpt lat="45.49507" lon="6.74785">
        <ele>2556</ele>
        <time>2011-03-16T11:09:19.999Z</time>
      </trkpt>
      <trkpt lat="45.49484" lon="6.74814">
        <ele>2568</ele>
        <time>2011-03-16T11:09:35.971Z</time>
      </trkpt>
      <trkpt lat="45.49459" lon="6.74844">
        <ele>2581</ele>
        <time>2011-03-16T11:09:51.704Z</time>
      </trkpt>
      <trkpt lat="45.49435" lon="6.74875">
        <ele>2592</ele>
        <time>2011-03-16T11:10:07.691Z</time>
      </trkpt>
      <trkpt lat="45.49411" lon="6.74906">
        <ele>2604</ele>
        <time>2011-03-16T11:10:23.667Z</time>
      </trkpt>
      <trkpt lat="45.4939" lon="6.74934">
        <ele>2614</ele>
        <time>2011-03-16T11:10:38.999Z</time>
      </trkpt>
      <trkpt lat="45.49367" lon="6.74966">
        <ele>2615</ele>
        <time>2011-03-16T11:10:54.671Z</time>
      </trkpt>
      <trkpt lat="45.49356" lon="6.74965">
        <ele>2618</ele>
        <time>2011-03-16T11:11:09.999Z</time>
      </trkpt>
      <trkpt lat="45.49361" lon="6.74947">
        <ele>2615</ele>
        <time>2011-03-16T11:11:25.666Z</time>
      </trkpt>
      <trkpt lat="45.49407" lon="6.74959">
        <ele>2612</ele>
        <time>2011-03-16T11:11:41.000Z</time>
      </trkpt>
      <trkpt lat="45.49455" lon="6.74945">
        <ele>2610</ele>
        <time>2011-03-16T11:11:50.692Z</time>
      </trkpt>
      <trkpt lat="45.49497" lon="6.74921">
        <ele>2608</ele>
        <time>2011-03-16T11:11:58.661Z</time>
      </trkpt>
      <trkpt lat="45.49532" lon="6.74871">
        <ele>2604</ele>
        <time>2011-03-16T11:12:07.000Z</time>
      </trkpt>
      <trkpt lat="45.4954" lon="6.74799">
        <ele>2594</ele>
        <time>2011-03-16T11:12:18.673Z</time>
      </trkpt>
      <trkpt lat="45.49552" lon="6.74778">
        <ele>2583</ele>
        <time>2011-03-16T11:12:33.997Z</time>
      </trkpt>
      <trkpt lat="45.49548" lon="6.74782">
        <ele>2574</ele>
        <time>2011-03-16T11:12:49.674Z</time>
      </trkpt>
      <trkpt lat="45.49548" lon="6.7478">
        <ele>2571</ele>
        <time>2011-03-16T11:13:05.990Z</time>
      </trkpt>
      <trkpt lat="45.49547" lon="6.74777">
        <ele>2559</ele>
        <time>2011-03-16T11:14:49.000Z</time>
      </trkpt>
      <trkpt lat="45.49548" lon="6.74777">
        <ele>2558</ele>
        <time>2011-03-16T11:15:04.788Z</time>
      </trkpt>
      <trkpt lat="45.49546" lon="6.74776">
        <ele>2552</ele>
        <time>2011-03-16T12:05:48.611Z</time>
      </trkpt>
      <trkpt lat="45.49545" lon="6.74777">
        <ele>2552</ele>
        <time>2011-03-16T12:06:04.000Z</time>
      </trkpt>
      <trkpt lat="45.49546" lon="6.7478">
        <ele>2554</ele>
        <time>2011-03-16T12:06:19.847Z</time>
      </trkpt>
      <trkpt lat="45.49546" lon="6.7478">
        <ele>2553</ele>
        <time>2011-03-16T12:06:35.674Z</time>
      </trkpt>
      <trkpt lat="45.49546" lon="6.74779">
        <ele>2552</ele>
        <time>2011-03-16T12:06:51.605Z</time>
      </trkpt>
      <trkpt lat="45.49546" lon="6.74775">
        <ele>2552</ele>
        <time>2011-03-16T12:07:06.989Z</time>
      </trkpt>
      <trkpt lat="45.49546" lon="6.74772">
        <ele>2552</ele>
        <time>2011-03-16T12:07:22.609Z</time>
      </trkpt>
      <trkpt lat="45.49546" lon="6.74772">
        <ele>2552</ele>
        <time>2011-03-16T12:07:39.000Z</time>
      </trkpt>
      <trkpt lat="45.49545" lon="6.74772">
        <ele>2553</ele>
        <time>2011-03-16T12:07:54.588Z</time>
      </trkpt>
      <trkpt lat="45.49522" lon="6.74725">
        <ele>2551</ele>
        <time>2011-03-16T12:08:09.590Z</time>
      </trkpt>
      <trkpt lat="45.49504" lon="6.74662">
        <ele>2548</ele>
        <time>2011-03-16T12:08:18.802Z</time>
      </trkpt>
      <trkpt lat="45.49517" lon="6.74598">
        <ele>2546</ele>
        <time>2011-03-16T12:08:23.000Z</time>
      </trkpt>
      <trkpt lat="45.49539" lon="6.74528">
        <ele>2544</ele>
        <time>2011-03-16T12:08:28.000Z</time>
      </trkpt>
      <trkpt lat="45.49557" lon="6.74458">
        <ele>2542</ele>
        <time>2011-03-16T12:08:33.000Z</time>
      </trkpt>
      <trkpt lat="45.49588" lon="6.74375">
        <ele>2540</ele>
        <time>2011-03-16T12:08:39.594Z</time>
      </trkpt>
      <trkpt lat="45.49627" lon="6.7432">
        <ele>2539</ele>
        <time>2011-03-16T12:08:44.612Z</time>
      </trkpt>
      <trkpt lat="45.49672" lon="6.74285">
        <ele>2535</ele>
        <time>2011-03-16T12:08:51.956Z</time>
      </trkpt>
      <trkpt lat="45.49689" lon="6.74263">
        <ele>2520</ele>
        <time>2011-03-16T12:09:07.617Z</time>
      </trkpt>
      <trkpt lat="45.49661" lon="6.7425">
        <ele>2504</ele>
        <time>2011-03-16T12:09:23.599Z</time>
      </trkpt>
      <trkpt lat="45.49627" lon="6.74171">
        <ele>2494</ele>
        <time>2011-03-16T12:09:35.996Z</time>
      </trkpt>
      <trkpt lat="45.49666" lon="6.74138">
        <ele>2488</ele>
        <time>2011-03-16T12:09:46.601Z</time>
      </trkpt>
      <trkpt lat="45.4971" lon="6.74163">
        <ele>2487</ele>
        <time>2011-03-16T12:09:57.999Z</time>
      </trkpt>
      <trkpt lat="45.49757" lon="6.74192">
        <ele>2485</ele>
        <time>2011-03-16T12:10:08.999Z</time>
      </trkpt>
      <trkpt lat="45.49804" lon="6.7417">
        <ele>2482</ele>
        <time>2011-03-16T12:10:14.999Z</time>
      </trkpt>
      <trkpt lat="45.49849" lon="6.74164">
        <ele>2476</ele>
        <time>2011-03-16T12:10:19.999Z</time>
      </trkpt>
      <trkpt lat="45.4989" lon="6.742">
        <ele>2470</ele>
        <time>2011-03-16T12:10:27.999Z</time>
      </trkpt>
      <trkpt lat="45.49893" lon="6.74224">
        <ele>2461</ele>
        <time>2011-03-16T12:10:43.617Z</time>
      </trkpt>
      <trkpt lat="45.49894" lon="6.74225">
        <ele>2460</ele>
        <time>2011-03-16T12:10:59.605Z</time>
      </trkpt>
      <trkpt lat="45.49894" lon="6.7423">
        <ele>2457</ele>
        <time>2011-03-16T12:11:14.999Z</time>
      </trkpt>
      <trkpt lat="45.49896" lon="6.74244">
        <ele>2448</ele>
        <time>2011-03-16T12:11:30.585Z</time>
      </trkpt>
      <trkpt lat="45.49897" lon="6.74246">
        <ele>2443</ele>
        <time>2011-03-16T12:11:46.575Z</time>
      </trkpt>
      <trkpt lat="45.49897" lon="6.74247">
        <ele>2441</ele>
        <time>2011-03-16T12:12:01.778Z</time>
      </trkpt>
      <trkpt lat="45.49898" lon="6.74245">
        <ele>2436</ele>
        <time>2011-03-16T12:12:16.999Z</time>
      </trkpt>
      <trkpt lat="45.499" lon="6.74243">
        <ele>2429</ele>
        <time>2011-03-16T12:12:32.999Z</time>
      </trkpt>
      <trkpt lat="45.49889" lon="6.74274">
        <ele>2411</ele>
        <time>2011-03-16T12:12:48.585Z</time>
      </trkpt>
      <trkpt lat="45.49869" lon="6.74306">
        <ele>2396</ele>
        <time>2011-03-16T12:13:03.601Z</time>
      </trkpt>
      <trkpt lat="45.49848" lon="6.74338">
        <ele>2385</ele>
        <time>2011-03-16T12:13:19.997Z</time>
      </trkpt>
      <trkpt lat="45.49824" lon="6.7437">
        <ele>2379</ele>
        <time>2011-03-16T12:13:35.594Z</time>
      </trkpt>
      <trkpt lat="45.498" lon="6.74398">
        <ele>2382</ele>
        <time>2011-03-16T12:13:51.591Z</time>
      </trkpt>
      <trkpt lat="45.49768" lon="6.74416">
        <ele>2388</ele>
        <time>2011-03-16T12:14:06.597Z</time>
      </trkpt>
      <trkpt lat="45.49754" lon="6.74427">
        <ele>2389</ele>
        <time>2011-03-16T12:14:21.995Z</time>
      </trkpt>
      <trkpt lat="45.49737" lon="6.74441">
        <ele>2393</ele>
        <time>2011-03-16T12:14:37.955Z</time>
      </trkpt>
      <trkpt lat="45.4972" lon="6.74467">
        <ele>2403</ele>
        <time>2011-03-16T12:14:53.576Z</time>
      </trkpt>
      <trkpt lat="45.4971" lon="6.74496">
        <ele>2420</ele>
        <time>2011-03-16T12:15:08.582Z</time>
      </trkpt>
      <trkpt lat="45.49708" lon="6.74525">
        <ele>2432</ele>
        <time>2011-03-16T12:15:23.586Z</time>
      </trkpt>
      <trkpt lat="45.49688" lon="6.74552">
        <ele>2443</ele>
        <time>2011-03-16T12:15:39.575Z</time>
      </trkpt>
      <trkpt lat="45.49669" lon="6.74577">
        <ele>2450</ele>
        <time>2011-03-16T12:15:54.597Z</time>
      </trkpt>
      <trkpt lat="45.4965" lon="6.74603">
        <ele>2457</ele>
        <time>2011-03-16T12:16:10.572Z</time>
      </trkpt>
      <trkpt lat="45.49632" lon="6.74628">
        <ele>2466</ele>
        <time>2011-03-16T12:16:25.577Z</time>
      </trkpt>
      <trkpt lat="45.49613" lon="6.74654">
        <ele>2477</ele>
        <time>2011-03-16T12:16:41.573Z</time>
      </trkpt>
      <trkpt lat="45.49592" lon="6.74681">
        <ele>2487</ele>
        <time>2011-03-16T12:16:56.584Z</time>
      </trkpt>
      <trkpt lat="45.4957" lon="6.74709">
        <ele>2497</ele>
        <time>2011-03-16T12:17:11.961Z</time>
      </trkpt>
      <trkpt lat="45.49544" lon="6.74741">
        <ele>2507</ele>
        <time>2011-03-16T12:17:27.601Z</time>
      </trkpt>
      <trkpt lat="45.49523" lon="6.74769">
        <ele>2517</ele>
        <time>2011-03-16T12:17:42.997Z</time>
      </trkpt>
      <trkpt lat="45.49497" lon="6.74802">
        <ele>2544</ele>
        <time>2011-03-16T12:17:57.999Z</time>
      </trkpt>
      <trkpt lat="45.49471" lon="6.74834">
        <ele>2563</ele>
        <time>2011-03-16T12:18:13.999Z</time>
      </trkpt>
      <trkpt lat="45.49446" lon="6.74866">
        <ele>2579</ele>
        <time>2011-03-16T12:18:29.998Z</time>
      </trkpt>
      <trkpt lat="45.49422" lon="6.74897">
        <ele>2589</ele>
        <time>2011-03-16T12:18:45.929Z</time>
      </trkpt>
      <trkpt lat="45.4941" lon="6.74911">
        <ele>2593</ele>
        <time>2011-03-16T12:19:01.606Z</time>
      </trkpt>
      <trkpt lat="45.494" lon="6.74924">
        <ele>2594</ele>
        <time>2011-03-16T12:19:17.570Z</time>
      </trkpt>
      <trkpt lat="45.49382" lon="6.74948">
        <ele>2594</ele>
        <time>2011-03-16T12:19:32.996Z</time>
      </trkpt>
      <trkpt lat="45.49345" lon="6.7498">
        <ele>2599</ele>
        <time>2011-03-16T12:19:47.999Z</time>
      </trkpt>
      <trkpt lat="45.4934" lon="6.74984">
        <ele>2606</ele>
        <time>2011-03-16T12:20:03.592Z</time>
      </trkpt>
      <trkpt lat="45.4934" lon="6.74984">
        <ele>2606</ele>
        <time>2011-03-16T12:20:19.596Z</time>
      </trkpt>
      <trkpt lat="45.49294" lon="6.74975">
        <ele>2603</ele>
        <time>2011-03-16T12:20:30.579Z</time>
      </trkpt>
      <trkpt lat="45.49243" lon="6.74964">
        <ele>2602</ele>
        <time>2011-03-16T12:20:39.999Z</time>
      </trkpt>
      <trkpt lat="45.49198" lon="6.74946">
        <ele>2601</ele>
        <time>2011-03-16T12:20:47.564Z</time>
      </trkpt>
      <trkpt lat="45.49154" lon="6.74931">
        <ele>2600</ele>
        <time>2011-03-16T12:20:57.566Z</time>
      </trkpt>
      <trkpt lat="45.49106" lon="6.74943">
        <ele>2598</ele>
        <time>2011-03-16T12:21:08.000Z</time>
      </trkpt>
      <trkpt lat="45.49082" lon="6.74887">
        <ele>2593</ele>
        <time>2011-03-16T12:21:19.799Z</time>
      </trkpt>
      <trkpt lat="45.49081" lon="6.74878">
        <ele>2593</ele>
        <time>2011-03-16T12:21:35.561Z</time>
      </trkpt>
      <trkpt lat="45.49081" lon="6.74856">
        <ele>2590</ele>
        <time>2011-03-16T12:21:50.576Z</time>
      </trkpt>
      <trkpt lat="45.49082" lon="6.74848">
        <ele>2508</ele>
        <time>2011-03-16T12:22:06.551Z</time>
      </trkpt>
      <trkpt lat="45.49091" lon="6.74839">
        <ele>2588</ele>
        <time>2011-03-16T12:22:21.566Z</time>
      </trkpt>
      <trkpt lat="45.49088" lon="6.74846">
        <ele>2589</ele>
        <time>2011-03-16T12:22:36.842Z</time>
      </trkpt>
      <trkpt lat="45.49088" lon="6.74852">
        <ele>2588</ele>
        <time>2011-03-16T12:22:52.571Z</time>
      </trkpt>
      <trkpt lat="45.49686" lon="6.67549">
        <ele>2241</ele>
        <time>2011-03-16T14:26:34.575Z</time>
      </trkpt>
      <trkpt lat="45.49656" lon="6.67547">
        <ele>2247</ele>
        <time>2011-03-16T14:26:50.501Z</time>
      </trkpt>
      <trkpt lat="45.49628" lon="6.67547">
        <ele>2252</ele>
        <time>2011-03-16T14:27:05.816Z</time>
      </trkpt>
      <trkpt lat="45.49598" lon="6.67547">
        <ele>2256</ele>
        <time>2011-03-16T14:27:21.000Z</time>
      </trkpt>
      <trkpt lat="45.49572" lon="6.67545">
        <ele>2261</ele>
        <time>2011-03-16T14:27:36.492Z</time>
      </trkpt>
      <trkpt lat="45.49544" lon="6.67546">
        <ele>2264</ele>
        <time>2011-03-16T14:27:51.500Z</time>
      </trkpt>
      <trkpt lat="45.49513" lon="6.67545">
        <ele>2269</ele>
        <time>2011-03-16T14:28:07.493Z</time>
      </trkpt>
      <trkpt lat="45.49485" lon="6.67546">
        <ele>2273</ele>
        <time>2011-03-16T14:28:22.494Z</time>
      </trkpt>
      <trkpt lat="45.49456" lon="6.67546">
        <ele>2277</ele>
        <time>2011-03-16T14:28:37.986Z</time>
      </trkpt>
      <trkpt lat="45.49425" lon="6.67547">
        <ele>2283</ele>
        <time>2011-03-16T14:28:53.495Z</time>
      </trkpt>
      <trkpt lat="45.49397" lon="6.67548">
        <ele>2287</ele>
        <time>2011-03-16T14:29:08.511Z</time>
      </trkpt>
      <trkpt lat="45.49368" lon="6.67549">
        <ele>2300</ele>
        <time>2011-03-16T14:29:25.000Z</time>
      </trkpt>
      <trkpt lat="45.49344" lon="6.67549">
        <ele>2320</ele>
        <time>2011-03-16T14:29:40.514Z</time>
      </trkpt>
      <trkpt lat="45.4932" lon="6.6755">
        <ele>2339</ele>
        <time>2011-03-16T14:29:55.754Z</time>
      </trkpt>
      <trkpt lat="45.49296" lon="6.67551">
        <ele>2359</ele>
        <time>2011-03-16T14:30:11.000Z</time>
      </trkpt>
      <trkpt lat="45.49268" lon="6.67548">
        <ele>2375</ele>
        <time>2011-03-16T14:30:27.000Z</time>
      </trkpt>
      <trkpt lat="45.49241" lon="6.67547">
        <ele>2383</ele>
        <time>2011-03-16T14:30:42.547Z</time>
      </trkpt>
      <trkpt lat="45.49211" lon="6.67546">
        <ele>2389</ele>
        <time>2011-03-16T14:30:58.498Z</time>
      </trkpt>
      <trkpt lat="45.49181" lon="6.67546">
        <ele>2395</ele>
        <time>2011-03-16T14:31:14.491Z</time>
      </trkpt>
      <trkpt lat="45.49153" lon="6.67546">
        <ele>2399</ele>
        <time>2011-03-16T14:31:29.533Z</time>
      </trkpt>
      <trkpt lat="45.49123" lon="6.67547">
        <ele>2406</ele>
        <time>2011-03-16T14:31:45.509Z</time>
      </trkpt>
      <trkpt lat="45.49094" lon="6.67546">
        <ele>2416</ele>
        <time>2011-03-16T14:32:01.491Z</time>
      </trkpt>
      <trkpt lat="45.49065" lon="6.67547">
        <ele>2429</ele>
        <time>2011-03-16T14:32:17.502Z</time>
      </trkpt>
      <trkpt lat="45.49038" lon="6.67548">
        <ele>2440</ele>
        <time>2011-03-16T14:32:32.997Z</time>
      </trkpt>
      <trkpt lat="45.49011" lon="6.67547">
        <ele>2455</ele>
        <time>2011-03-16T14:32:48.495Z</time>
      </trkpt>
      <trkpt lat="45.48986" lon="6.67547">
        <ele>2469</ele>
        <time>2011-03-16T14:33:03.497Z</time>
      </trkpt>
      <trkpt lat="45.48961" lon="6.67546">
        <ele>2485</ele>
        <time>2011-03-16T14:33:19.492Z</time>
      </trkpt>
      <trkpt lat="45.48936" lon="6.67546">
        <ele>2498</ele>
        <time>2011-03-16T14:33:34.999Z</time>
      </trkpt>
      <trkpt lat="45.4891" lon="6.67547">
        <ele>2511</ele>
        <time>2011-03-16T14:33:50.498Z</time>
      </trkpt>
      <trkpt lat="45.48881" lon="6.67544">
        <ele>2518</ele>
        <time>2011-03-16T14:34:05.999Z</time>
      </trkpt>
      <trkpt lat="45.48872" lon="6.67545">
        <ele>2516</ele>
        <time>2011-03-16T14:34:21.994Z</time>
      </trkpt>
      <trkpt lat="45.48871" lon="6.67543">
        <ele>2518</ele>
        <time>2011-03-16T14:34:37.964Z</time>
      </trkpt>
      <trkpt lat="45.48875" lon="6.67544">
        <ele>2519</ele>
        <time>2011-03-16T14:34:52.999Z</time>
      </trkpt>
      <trkpt lat="45.4889" lon="6.67566">
        <ele>2519</ele>
        <time>2011-03-16T14:35:08.992Z</time>
      </trkpt>
      <trkpt lat="45.48899" lon="6.6759">
        <ele>2519</ele>
        <time>2011-03-16T14:35:24.999Z</time>
      </trkpt>
      <trkpt lat="45.48899" lon="6.67589">
        <ele>2520</ele>
        <time>2011-03-16T14:35:40.948Z</time>
      </trkpt>
      <trkpt lat="45.48901" lon="6.67523">
        <ele>2519</ele>
        <time>2011-03-16T14:35:50.645Z</time>
      </trkpt>
      <trkpt lat="45.48906" lon="6.67497">
        <ele>2516</ele>
        <time>2011-03-16T14:36:06.500Z</time>
      </trkpt>
      <trkpt lat="45.48907" lon="6.67483">
        <ele>2513</ele>
        <time>2011-03-16T14:36:22.999Z</time>
      </trkpt>
      <trkpt lat="45.48926" lon="6.67463">
        <ele>2505</ele>
        <time>2011-03-16T14:36:38.000Z</time>
      </trkpt>
      <trkpt lat="45.48934" lon="6.67458">
        <ele>2493</ele>
        <time>2011-03-16T14:36:53.495Z</time>
      </trkpt>
      <trkpt lat="45.48945" lon="6.67445">
        <ele>2484</ele>
        <time>2011-03-16T14:37:08.519Z</time>
      </trkpt>
      <trkpt lat="45.48958" lon="6.67436">
        <ele>2472</ele>
        <time>2011-03-16T14:37:24.504Z</time>
      </trkpt>
      <trkpt lat="45.48963" lon="6.67427">
        <ele>2469</ele>
        <time>2011-03-16T14:37:40.551Z</time>
      </trkpt>
      <trkpt lat="45.48962" lon="6.67427">
        <ele>2467</ele>
        <time>2011-03-16T14:37:56.505Z</time>
      </trkpt>
      <trkpt lat="45.48962" lon="6.67427">
        <ele>2467</ele>
        <time>2011-03-16T14:38:11.999Z</time>
      </trkpt>
      <trkpt lat="45.48962" lon="6.67427">
        <ele>2466</ele>
        <time>2011-03-16T14:38:27.999Z</time>
      </trkpt>
      <trkpt lat="45.48962" lon="6.67409">
        <ele>2464</ele>
        <time>2011-03-16T14:38:43.999Z</time>
      </trkpt>
      <trkpt lat="45.48973" lon="6.67389">
        <ele>2453</ele>
        <time>2011-03-16T14:38:59.998Z</time>
      </trkpt>
      <trkpt lat="45.4898" lon="6.67353">
        <ele>2439</ele>
        <time>2011-03-16T14:39:15.999Z</time>
      </trkpt>
      <trkpt lat="45.48991" lon="6.67341">
        <ele>2424</ele>
        <time>2011-03-16T14:39:31.961Z</time>
      </trkpt>
      <trkpt lat="45.49011" lon="6.67337">
        <ele>2407</ele>
        <time>2011-03-16T14:39:47.631Z</time>
      </trkpt>
      <trkpt lat="45.49027" lon="6.67331">
        <ele>2398</ele>
        <time>2011-03-16T14:40:03.521Z</time>
      </trkpt>
      <trkpt lat="45.49027" lon="6.6733">
        <ele>2398</ele>
        <time>2011-03-16T14:40:19.493Z</time>
      </trkpt>
      <trkpt lat="45.49027" lon="6.6733">
        <ele>2398</ele>
        <time>2011-03-16T14:40:34.954Z</time>
      </trkpt>
      <trkpt lat="45.49028" lon="6.67329">
        <ele>2395</ele>
        <time>2011-03-16T14:40:49.994Z</time>
      </trkpt>
      <trkpt lat="45.49052" lon="6.67286">
        <ele>2392</ele>
        <time>2011-03-16T14:41:05.488Z</time>
      </trkpt>
      <trkpt lat="45.49104" lon="6.67291">
        <ele>2388</ele>
        <time>2011-03-16T14:41:18.998Z</time>
      </trkpt>
      <trkpt lat="45.49149" lon="6.67302">
        <ele>2383</ele>
        <time>2011-03-16T14:41:30.497Z</time>
      </trkpt>
      <trkpt lat="45.49195" lon="6.67313">
        <ele>2380</ele>
        <time>2011-03-16T14:41:41.485Z</time>
      </trkpt>
      <trkpt lat="45.49244" lon="6.67317">
        <ele>2377</ele>
        <time>2011-03-16T14:41:53.000Z</time>
      </trkpt>
      <trkpt lat="45.4929" lon="6.67309">
        <ele>2375</ele>
        <time>2011-03-16T14:42:03.523Z</time>
      </trkpt>
      <trkpt lat="45.49327" lon="6.6727">
        <ele>2368</ele>
        <time>2011-03-16T14:42:16.490Z</time>
      </trkpt>
      <trkpt lat="45.49335" lon="6.67232">
        <ele>2364</ele>
        <time>2011-03-16T14:42:32.000Z</time>
      </trkpt>
      <trkpt lat="45.4934" lon="6.67192">
        <ele>2353</ele>
        <time>2011-03-16T14:42:47.478Z</time>
      </trkpt>
      <trkpt lat="45.49385" lon="6.67151">
        <ele>2342</ele>
        <time>2011-03-16T14:42:59.998Z</time>
      </trkpt>
      <trkpt lat="45.49434" lon="6.67149">
        <ele>2329</ele>
        <time>2011-03-16T14:43:04.910Z</time>
      </trkpt>
      <trkpt lat="45.4948" lon="6.67151">
        <ele>2313</ele>
        <time>2011-03-16T14:43:11.525Z</time>
      </trkpt>
      <trkpt lat="45.49506" lon="6.67145">
        <ele>2291</ele>
        <time>2011-03-16T14:43:27.999Z</time>
      </trkpt>
      <trkpt lat="45.49509" lon="6.67143">
        <ele>2281</ele>
        <time>2011-03-16T14:43:43.914Z</time>
      </trkpt>
      <trkpt lat="45.49509" lon="6.67144">
        <ele>2280</ele>
        <time>2011-03-16T14:43:59.000Z</time>
      </trkpt>
      <trkpt lat="45.49509" lon="6.67144">
        <ele>2279</ele>
        <time>2011-03-16T14:44:14.496Z</time>
      </trkpt>
      <trkpt lat="45.49509" lon="6.67144">
        <ele>2279</ele>
        <time>2011-03-16T14:44:29.997Z</time>
      </trkpt>
      <trkpt lat="45.49509" lon="6.67144">
        <ele>2279</ele>
        <time>2011-03-16T14:44:45.913Z</time>
      </trkpt>
      <trkpt lat="45.4951" lon="6.67145">
        <ele>2279</ele>
        <time>2011-03-16T14:45:01.999Z</time>
      </trkpt>
      <trkpt lat="45.49512" lon="6.67136">
        <ele>2275</ele>
        <time>2011-03-16T14:45:17.508Z</time>
      </trkpt>
      <trkpt lat="45.49556" lon="6.67161">
        <ele>2267</ele>
        <time>2011-03-16T14:45:32.480Z</time>
      </trkpt>
      <trkpt lat="45.49611" lon="6.67191">
        <ele>2263</ele>
        <time>2011-03-16T14:45:37.999Z</time>
      </trkpt>
      <trkpt lat="45.49656" lon="6.67207">
        <ele>2258</ele>
        <time>2011-03-16T14:45:45.485Z</time>
      </trkpt>
      <trkpt lat="45.49701" lon="6.6719">
        <ele>2254</ele>
        <time>2011-03-16T14:45:56.517Z</time>
      </trkpt>
      <trkpt lat="45.49754" lon="6.67202">
        <ele>2247</ele>
        <time>2011-03-16T14:46:05.999Z</time>
      </trkpt>
      <trkpt lat="45.49796" lon="6.6725">
        <ele>2244</ele>
        <time>2011-03-16T14:46:11.000Z</time>
      </trkpt>
      <trkpt lat="45.49833" lon="6.67292">
        <ele>2241</ele>
        <time>2011-03-16T14:46:17.486Z</time>
      </trkpt>
      <trkpt lat="45.49875" lon="6.67324">
        <ele>2239</ele>
        <time>2011-03-16T14:46:22.493Z</time>
      </trkpt>
      <trkpt lat="45.49908" lon="6.6738">
        <ele>2237</ele>
        <time>2011-03-16T14:46:30.484Z</time>
      </trkpt>
      <trkpt lat="45.49928" lon="6.67438">
        <ele>2233</ele>
        <time>2011-03-16T14:46:40.999Z</time>
      </trkpt>
      <trkpt lat="45.49952" lon="6.67492">
        <ele>2231</ele>
        <time>2011-03-16T14:46:48.483Z</time>
      </trkpt>
      <trkpt lat="45.49984" lon="6.67543">
        <ele>2228</ele>
        <time>2011-03-16T14:46:55.937Z</time>
      </trkpt>
      <trkpt lat="45.49997" lon="6.67571">
        <ele>2220</ele>
        <time>2011-03-16T14:47:11.000Z</time>
      </trkpt>
      <trkpt lat="45.5" lon="6.67555">
        <ele>2206</ele>
        <time>2011-03-16T14:47:27.000Z</time>
      </trkpt>
      <trkpt lat="45.49995" lon="6.67547">
        <ele>2196</ele>
        <time>2011-03-16T14:47:43.000Z</time>
      </trkpt>
      <trkpt lat="45.49992" lon="6.67545">
        <ele>2194</ele>
        <time>2011-03-16T14:47:59.000Z</time>
      </trkpt>
      <trkpt lat="45.49962" lon="6.67543">
        <ele>2189</ele>
        <time>2011-03-16T14:48:15.000Z</time>
      </trkpt>
      <trkpt lat="45.49933" lon="6.67543">
        <ele>2190</ele>
        <time>2011-03-16T14:48:31.000Z</time>
      </trkpt>
      <trkpt lat="45.49921" lon="6.67542">
        <ele>2192</ele>
        <time>2011-03-16T14:48:46.533Z</time>
      </trkpt>
      <trkpt lat="45.49913" lon="6.67542">
        <ele>2192</ele>
        <time>2011-03-16T14:49:02.521Z</time>
      </trkpt>
      <trkpt lat="45.49912" lon="6.67542">
        <ele>2193</ele>
        <time>2011-03-16T14:49:17.533Z</time>
      </trkpt>
      <trkpt lat="45.49912" lon="6.67542">
        <ele>2193</ele>
        <time>2011-03-16T14:49:33.510Z</time>
      </trkpt>
      <trkpt lat="45.49912" lon="6.67539">
        <ele>2195</ele>
        <time>2011-03-16T14:49:48.993Z</time>
      </trkpt>
      <trkpt lat="45.49912" lon="6.6754">
        <ele>2196</ele>
        <time>2011-03-16T14:50:04.000Z</time>
      </trkpt>
      <trkpt lat="45.49901" lon="6.67539">
        <ele>2199</ele>
        <time>2011-03-16T14:50:20.524Z</time>
      </trkpt>
      <trkpt lat="45.49874" lon="6.6754">
        <ele>2202</ele>
        <time>2011-03-16T14:50:36.499Z</time>
      </trkpt>
      <trkpt lat="45.49843" lon="6.67541">
        <ele>2206</ele>
        <time>2011-03-16T14:50:52.483Z</time>
      </trkpt>
      <trkpt lat="45.49819" lon="6.67541">
        <ele>2211</ele>
        <time>2011-03-16T14:51:07.484Z</time>
      </trkpt>
      <trkpt lat="45.49792" lon="6.67543">
        <ele>2214</ele>
        <time>2011-03-16T14:51:22.514Z</time>
      </trkpt>
      <trkpt lat="45.49769" lon="6.67542">
        <ele>2218</ele>
        <time>2011-03-16T14:51:38.486Z</time>
      </trkpt>
      <trkpt lat="45.49742" lon="6.67543">
        <ele>2223</ele>
        <time>2011-03-16T14:51:53.488Z</time>
      </trkpt>
      <trkpt lat="45.49713" lon="6.67543">
        <ele>2228</ele>
        <time>2011-03-16T14:52:09.000Z</time>
      </trkpt>
      <trkpt lat="45.49685" lon="6.67548">
        <ele>2229</ele>
        <time>2011-03-16T14:52:24.531Z</time>
      </trkpt>
      <trkpt lat="45.49657" lon="6.67548">
        <ele>2232</ele>
        <time>2011-03-16T14:52:40.505Z</time>
      </trkpt>
      <trkpt lat="45.49629" lon="6.6755">
        <ele>2235</ele>
        <time>2011-03-16T14:52:56.481Z</time>
      </trkpt>
      <trkpt lat="45.49604" lon="6.67551">
        <ele>2238</ele>
        <time>2011-03-16T14:53:12.000Z</time>
      </trkpt>
      <trkpt lat="45.49591" lon="6.67549">
        <ele>2244</ele>
        <time>2011-03-16T14:53:27.514Z</time>
      </trkpt>
      <trkpt lat="45.49591" lon="6.67549">
        <ele>2245</ele>
        <time>2011-03-16T14:53:43.496Z</time>
      </trkpt>
      <trkpt lat="45.49591" lon="6.67549">
        <ele>2245</ele>
        <time>2011-03-16T14:53:58.511Z</time>
      </trkpt>
      <trkpt lat="45.49591" lon="6.67549">
        <ele>2245</ele>
        <time>2011-03-16T14:54:13.986Z</time>
      </trkpt>
      <trkpt lat="45.49588" lon="6.67549">
        <ele>2246</ele>
        <time>2011-03-16T14:54:29.000Z</time>
      </trkpt>
      <trkpt lat="45.49564" lon="6.67548">
        <ele>2249</ele>
        <time>2011-03-16T14:54:45.987Z</time>
      </trkpt>
      <trkpt lat="45.49535" lon="6.67547">
        <ele>2254</ele>
        <time>2011-03-16T14:55:01.477Z</time>
      </trkpt>
      <trkpt lat="45.49509" lon="6.67545">
        <ele>2258</ele>
        <time>2011-03-16T14:55:16.502Z</time>
      </trkpt>
      <trkpt lat="45.49477" lon="6.67546">
        <ele>2263</ele>
        <time>2011-03-16T14:55:32.000Z</time>
      </trkpt>
      <trkpt lat="45.49448" lon="6.67545">
        <ele>2270</ele>
        <time>2011-03-16T14:55:47.503Z</time>
      </trkpt>
      <trkpt lat="45.49423" lon="6.67547">
        <ele>2274</ele>
        <time>2011-03-16T14:56:02.999Z</time>
      </trkpt>
      <trkpt lat="45.49399" lon="6.67553">
        <ele>2285</ele>
        <time>2011-03-16T14:56:18.999Z</time>
      </trkpt>
      <trkpt lat="45.49377" lon="6.67558">
        <ele>2297</ele>
        <time>2011-03-16T14:56:34.997Z</time>
      </trkpt>
      <trkpt lat="45.4936" lon="6.67563">
        <ele>2307</ele>
        <time>2011-03-16T14:56:49.999Z</time>
      </trkpt>
      <trkpt lat="45.49338" lon="6.67567">
        <ele>2318</ele>
        <time>2011-03-16T14:57:05.703Z</time>
      </trkpt>
      <trkpt lat="45.49313" lon="6.67568">
        <ele>2325</ele>
        <time>2011-03-16T14:57:20.833Z</time>
      </trkpt>
      <trkpt lat="45.49283" lon="6.67566">
        <ele>2332</ele>
        <time>2011-03-16T14:57:36.495Z</time>
      </trkpt>
      <trkpt lat="45.49251" lon="6.67567">
        <ele>2337</ele>
        <time>2011-03-16T14:57:52.490Z</time>
      </trkpt>
      <trkpt lat="45.49226" lon="6.67566">
        <ele>2340</ele>
        <time>2011-03-16T14:58:07.517Z</time>
      </trkpt>
      <trkpt lat="45.49197" lon="6.67569">
        <ele>2345</ele>
        <time>2011-03-16T14:58:22.999Z</time>
      </trkpt>
      <trkpt lat="45.49167" lon="6.67569">
        <ele>2354</ele>
        <time>2011-03-16T14:58:38.498Z</time>
      </trkpt>
      <trkpt lat="45.49135" lon="6.67569">
        <ele>2366</ele>
        <time>2011-03-16T14:58:53.999Z</time>
      </trkpt>
      <trkpt lat="45.49108" lon="6.67572">
        <ele>2376</ele>
        <time>2011-03-16T14:59:09.565Z</time>
      </trkpt>
      <trkpt lat="45.49083" lon="6.67578">
        <ele>2384</ele>
        <time>2011-03-16T14:59:25.000Z</time>
      </trkpt>
      <trkpt lat="45.49056" lon="6.6758">
        <ele>2394</ele>
        <time>2011-03-16T14:59:41.000Z</time>
      </trkpt>
      <trkpt lat="45.49031" lon="6.67584">
        <ele>2403</ele>
        <time>2011-03-16T14:59:57.000Z</time>
      </trkpt>
      <trkpt lat="45.49008" lon="6.67582">
        <ele>2418</ele>
        <time>2011-03-16T15:00:12.505Z</time>
      </trkpt>
      <trkpt lat="45.48978" lon="6.67571">
        <ele>2445</ele>
        <time>2011-03-16T15:00:28.512Z</time>
      </trkpt>
      <trkpt lat="45.48952" lon="6.67564">
        <ele>2467</ele>
        <time>2011-03-16T15:00:43.530Z</time>
      </trkpt>
      <trkpt lat="45.48906" lon="6.6755">
        <ele>2492</ele>
        <time>2011-03-16T15:00:57.496Z</time>
      </trkpt>
      <trkpt lat="45.48886" lon="6.67565">
        <ele>2514</ele>
        <time>2011-03-16T15:01:12.505Z</time>
      </trkpt>
      <trkpt lat="45.48886" lon="6.67571">
        <ele>2515</ele>
        <time>2011-03-16T15:01:28.480Z</time>
      </trkpt>
      <trkpt lat="45.48888" lon="6.67583">
        <ele>2517</ele>
        <time>2011-03-16T15:01:43.914Z</time>
      </trkpt>
      <trkpt lat="45.48892" lon="6.67596">
        <ele>2518</ele>
        <time>2011-03-16T15:01:59.498Z</time>
      </trkpt>
      <trkpt lat="45.48893" lon="6.67609">
        <ele>2520</ele>
        <time>2011-03-16T15:02:15.492Z</time>
      </trkpt>
      <trkpt lat="45.48903" lon="6.67567">
        <ele>2519</ele>
        <time>2011-03-16T15:02:30.621Z</time>
      </trkpt>
      <trkpt lat="45.489" lon="6.67499">
        <ele>2517</ele>
        <time>2011-03-16T15:02:41.000Z</time>
      </trkpt>
      <trkpt lat="45.48914" lon="6.6748">
        <ele>2510</ele>
        <time>2011-03-16T15:02:57.000Z</time>
      </trkpt>
      <trkpt lat="45.48915" lon="6.67483">
        <ele>2511</ele>
        <time>2011-03-16T15:03:12.661Z</time>
      </trkpt>
      <trkpt lat="45.48925" lon="6.67452">
        <ele>2509</ele>
        <time>2011-03-16T15:03:28.503Z</time>
      </trkpt>
      <trkpt lat="45.4896" lon="6.67449">
        <ele>2493</ele>
        <time>2011-03-16T15:03:44.479Z</time>
      </trkpt>
      <trkpt lat="45.48965" lon="6.67432">
        <ele>2480</ele>
        <time>2011-03-16T15:04:00.492Z</time>
      </trkpt>
      <trkpt lat="45.48969" lon="6.67403">
        <ele>2473</ele>
        <time>2011-03-16T15:04:16.000Z</time>
      </trkpt>
      <trkpt lat="45.48979" lon="6.67389">
        <ele>2464</ele>
        <time>2011-03-16T15:04:31.496Z</time>
      </trkpt>
      <trkpt lat="45.4898" lon="6.67364">
        <ele>2453</ele>
        <time>2011-03-16T15:04:47.000Z</time>
      </trkpt>
      <trkpt lat="45.48987" lon="6.67341">
        <ele>2442</ele>
        <time>2011-03-16T15:05:02.475Z</time>
      </trkpt>
      <trkpt lat="45.49031" lon="6.67326">
        <ele>2429</ele>
        <time>2011-03-16T15:05:16.999Z</time>
      </trkpt>
      <trkpt lat="45.49069" lon="6.67302">
        <ele>2409</ele>
        <time>2011-03-16T15:05:32.510Z</time>
      </trkpt>
      <trkpt lat="45.49119" lon="6.67294">
        <ele>2397</ele>
        <time>2011-03-16T15:05:45.998Z</time>
      </trkpt>
      <trkpt lat="45.49142" lon="6.67289">
        <ele>2384</ele>
        <time>2011-03-16T15:06:01.530Z</time>
      </trkpt>
      <trkpt lat="45.49167" lon="6.67297">
        <ele>2372</ele>
        <time>2011-03-16T15:06:16.999Z</time>
      </trkpt>
      <trkpt lat="45.49198" lon="6.67304">
        <ele>2360</ele>
        <time>2011-03-16T15:06:32.996Z</time>
      </trkpt>
      <trkpt lat="45.49248" lon="6.67305">
        <ele>2350</ele>
        <time>2011-03-16T15:06:46.705Z</time>
      </trkpt>
      <trkpt lat="45.49293" lon="6.67294">
        <ele>2346</ele>
        <time>2011-03-16T15:06:58.492Z</time>
      </trkpt>
      <trkpt lat="45.49338" lon="6.67272">
        <ele>2341</ele>
        <time>2011-03-16T15:07:09.480Z</time>
      </trkpt>
      <trkpt lat="45.49374" lon="6.67232">
        <ele>2338</ele>
        <time>2011-03-16T15:07:23.485Z</time>
      </trkpt>
      <trkpt lat="45.494" lon="6.67205">
        <ele>2329</ele>
        <time>2011-03-16T15:07:39.478Z</time>
      </trkpt>
      <trkpt lat="45.49442" lon="6.67177">
        <ele>2323</ele>
        <time>2011-03-16T15:07:50.486Z</time>
      </trkpt>
      <trkpt lat="45.49484" lon="6.67147">
        <ele>2320</ele>
        <time>2011-03-16T15:07:56.478Z</time>
      </trkpt>
      <trkpt lat="45.49526" lon="6.6714">
        <ele>2296</ele>
        <time>2011-03-16T15:08:11.947Z</time>
      </trkpt>
      <trkpt lat="45.49566" lon="6.67143">
        <ele>2274</ele>
        <time>2011-03-16T15:08:27.510Z</time>
      </trkpt>
      <trkpt lat="45.49607" lon="6.67179">
        <ele>2267</ele>
        <time>2011-03-16T15:08:33.487Z</time>
      </trkpt>
      <trkpt lat="45.49654" lon="6.67204">
        <ele>2260</ele>
        <time>2011-03-16T15:08:39.483Z</time>
      </trkpt>
      <trkpt lat="45.49701" lon="6.67194">
        <ele>2256</ele>
        <time>2011-03-16T15:08:49.480Z</time>
      </trkpt>
      <trkpt lat="45.4975" lon="6.67197">
        <ele>2252</ele>
        <time>2011-03-16T15:08:55.478Z</time>
      </trkpt>
      <trkpt lat="45.49796" lon="6.67241">
        <ele>2245</ele>
        <time>2011-03-16T15:09:00.482Z</time>
      </trkpt>
      <trkpt lat="45.49839" lon="6.6728">
        <ele>2239</ele>
        <time>2011-03-16T15:09:05.497Z</time>
      </trkpt>
      <trkpt lat="45.49878" lon="6.67321">
        <ele>2235</ele>
        <time>2011-03-16T15:09:10.491Z</time>
      </trkpt>
      <trkpt lat="45.49911" lon="6.6737">
        <ele>2229</ele>
        <time>2011-03-16T15:09:16.521Z</time>
      </trkpt>
      <trkpt lat="45.49928" lon="6.67431">
        <ele>2227</ele>
        <time>2011-03-16T15:09:21.476Z</time>
      </trkpt>
      <trkpt lat="45.49951" lon="6.67493">
        <ele>2224</ele>
        <time>2011-03-16T15:09:27.477Z</time>
      </trkpt>
      <trkpt lat="45.49979" lon="6.67544">
        <ele>2221</ele>
        <time>2011-03-16T15:09:33.484Z</time>
      </trkpt>
      <trkpt lat="45.49991" lon="6.67551">
        <ele>2192</ele>
        <time>2011-03-16T15:09:49.000Z</time>
      </trkpt>
      <trkpt lat="45.49989" lon="6.67544">
        <ele>2183</ele>
        <time>2011-03-16T15:10:04.488Z</time>
      </trkpt>
      <trkpt lat="45.49972" lon="6.67547">
        <ele>2180</ele>
        <time>2011-03-16T15:10:20.991Z</time>
      </trkpt>
      <trkpt lat="45.49945" lon="6.67546">
        <ele>2184</ele>
        <time>2011-03-16T15:10:36.509Z</time>
      </trkpt>
      <trkpt lat="45.49919" lon="6.67547">
        <ele>2186</ele>
        <time>2011-03-16T15:10:52.481Z</time>
      </trkpt>
      <trkpt lat="45.49916" lon="6.67547">
        <ele>2186</ele>
        <time>2011-03-16T15:11:07.721Z</time>
      </trkpt>
      <trkpt lat="45.49916" lon="6.67547">
        <ele>2186</ele>
        <time>2011-03-16T15:11:22.902Z</time>
      </trkpt>
      <trkpt lat="45.49916" lon="6.67547">
        <ele>2186</ele>
        <time>2011-03-16T15:11:38.494Z</time>
      </trkpt>
      <trkpt lat="45.49915" lon="6.67547">
        <ele>2186</ele>
        <time>2011-03-16T15:11:54.506Z</time>
      </trkpt>
      <trkpt lat="45.49901" lon="6.67547">
        <ele>2188</ele>
        <time>2011-03-16T15:12:10.999Z</time>
      </trkpt>
      <trkpt lat="45.49876" lon="6.67546">
        <ele>2192</ele>
        <time>2011-03-16T15:12:26.491Z</time>
      </trkpt>
      <trkpt lat="45.49847" lon="6.67545">
        <ele>2197</ele>
        <time>2011-03-16T15:12:42.481Z</time>
      </trkpt>
      <trkpt lat="45.4982" lon="6.67545">
        <ele>2203</ele>
        <time>2011-03-16T15:12:58.481Z</time>
      </trkpt>
      <trkpt lat="45.49795" lon="6.67544">
        <ele>2209</ele>
        <time>2011-03-16T15:13:13.482Z</time>
      </trkpt>
      <trkpt lat="45.49767" lon="6.67543">
        <ele>2214</ele>
        <time>2011-03-16T15:13:29.518Z</time>
      </trkpt>
      <trkpt lat="45.49739" lon="6.67544">
        <ele>2221</ele>
        <time>2011-03-16T15:13:45.484Z</time>
      </trkpt>
      <trkpt lat="45.49713" lon="6.67547">
        <ele>2227</ele>
        <time>2011-03-16T15:14:00.496Z</time>
      </trkpt>
      <trkpt lat="45.49685" lon="6.67547">
        <ele>2233</ele>
        <time>2011-03-16T15:14:16.486Z</time>
      </trkpt>
      <trkpt lat="45.49658" lon="6.67547">
        <ele>2239</ele>
        <time>2011-03-16T15:14:31.570Z</time>
      </trkpt>
      <trkpt lat="45.49629" lon="6.67547">
        <ele>2244</ele>
        <time>2011-03-16T15:14:47.516Z</time>
      </trkpt>
      <trkpt lat="45.49604" lon="6.67547">
        <ele>2248</ele>
        <time>2011-03-16T15:15:02.874Z</time>
      </trkpt>
      <trkpt lat="45.49575" lon="6.67547">
        <ele>2253</ele>
        <time>2011-03-16T15:15:18.483Z</time>
      </trkpt>
      <trkpt lat="45.49546" lon="6.67546">
        <ele>2258</ele>
        <time>2011-03-16T15:15:34.931Z</time>
      </trkpt>
      <trkpt lat="45.49516" lon="6.67545">
        <ele>2264</ele>
        <time>2011-03-16T15:15:50.482Z</time>
      </trkpt>
      <trkpt lat="45.49487" lon="6.67545">
        <ele>2269</ele>
        <time>2011-03-16T15:16:06.481Z</time>
      </trkpt>
      <trkpt lat="45.49458" lon="6.67545">
        <ele>2274</ele>
        <time>2011-03-16T15:16:22.000Z</time>
      </trkpt>
      <trkpt lat="45.49429" lon="6.67545">
        <ele>2279</ele>
        <time>2011-03-16T15:16:38.000Z</time>
      </trkpt>
      <trkpt lat="45.49405" lon="6.67545">
        <ele>2282</ele>
        <time>2011-03-16T15:16:53.490Z</time>
      </trkpt>
      <trkpt lat="45.49381" lon="6.67541">
        <ele>2288</ele>
        <time>2011-03-16T15:17:08.491Z</time>
      </trkpt>
      <trkpt lat="45.49358" lon="6.67542">
        <ele>2297</ele>
        <time>2011-03-16T15:17:23.505Z</time>
      </trkpt>
      <trkpt lat="45.49335" lon="6.6754">
        <ele>2307</ele>
        <time>2011-03-16T15:17:39.999Z</time>
      </trkpt>
      <trkpt lat="45.49315" lon="6.67549">
        <ele>2330</ele>
        <time>2011-03-16T15:17:55.492Z</time>
      </trkpt>
      <trkpt lat="45.49289" lon="6.67551">
        <ele>2352</ele>
        <time>2011-03-16T15:18:11.000Z</time>
      </trkpt>
      <trkpt lat="45.49262" lon="6.67549">
        <ele>2363</ele>
        <time>2011-03-16T15:18:26.499Z</time>
      </trkpt>
      <trkpt lat="45.49234" lon="6.67549">
        <ele>2369</ele>
        <time>2011-03-16T15:18:41.999Z</time>
      </trkpt>
      <trkpt lat="45.49204" lon="6.67549">
        <ele>2376</ele>
        <time>2011-03-16T15:18:57.000Z</time>
      </trkpt>
      <trkpt lat="45.49177" lon="6.67549">
        <ele>2381</ele>
        <time>2011-03-16T15:19:12.482Z</time>
      </trkpt>
      <trkpt lat="45.49151" lon="6.67548">
        <ele>2387</ele>
        <time>2011-03-16T15:19:27.656Z</time>
      </trkpt>
      <trkpt lat="45.49125" lon="6.67549">
        <ele>2395</ele>
        <time>2011-03-16T15:19:43.000Z</time>
      </trkpt>
      <trkpt lat="45.49099" lon="6.6755">
        <ele>2403</ele>
        <time>2011-03-16T15:19:59.000Z</time>
      </trkpt>
      <trkpt lat="45.49074" lon="6.67551">
        <ele>2416</ele>
        <time>2011-03-16T15:20:15.509Z</time>
      </trkpt>
      <trkpt lat="45.49051" lon="6.67551">
        <ele>2427</ele>
        <time>2011-03-16T15:20:31.489Z</time>
      </trkpt>
      <trkpt lat="45.49023" lon="6.6755">
        <ele>2440</ele>
        <time>2011-03-16T15:20:47.000Z</time>
      </trkpt>
      <trkpt lat="45.48996" lon="6.67547">
        <ele>2452</ele>
        <time>2011-03-16T15:21:03.000Z</time>
      </trkpt>
      <trkpt lat="45.48971" lon="6.67549">
        <ele>2466</ele>
        <time>2011-03-16T15:21:19.000Z</time>
      </trkpt>
      <trkpt lat="45.48943" lon="6.67549">
        <ele>2481</ele>
        <time>2011-03-16T15:21:35.000Z</time>
      </trkpt>
      <trkpt lat="45.48921" lon="6.6755">
        <ele>2490</ele>
        <time>2011-03-16T15:21:50.526Z</time>
      </trkpt>
      <trkpt lat="45.48875" lon="6.67551">
        <ele>2496</ele>
        <time>2011-03-16T15:22:06.498Z</time>
      </trkpt>
      <trkpt lat="45.48881" lon="6.67567">
        <ele>2503</ele>
        <time>2011-03-16T15:22:22.479Z</time>
      </trkpt>
      <trkpt lat="45.48883" lon="6.67582">
        <ele>2505</ele>
        <time>2011-03-16T15:22:38.000Z</time>
      </trkpt>
      <trkpt lat="45.48893" lon="6.67606">
        <ele>2507</ele>
        <time>2011-03-16T15:22:53.489Z</time>
      </trkpt>
      <trkpt lat="45.48921" lon="6.67653">
        <ele>2507</ele>
        <time>2011-03-16T15:23:08.986Z</time>
      </trkpt>
      <trkpt lat="45.48952" lon="6.67701">
        <ele>2508</ele>
        <time>2011-03-16T15:23:19.999Z</time>
      </trkpt>
      <trkpt lat="45.48979" lon="6.67754">
        <ele>2507</ele>
        <time>2011-03-16T15:23:26.985Z</time>
      </trkpt>
      <trkpt lat="45.48993" lon="6.67822">
        <ele>2506</ele>
        <time>2011-03-16T15:23:34.998Z</time>
      </trkpt>
      <trkpt lat="45.49033" lon="6.67831">
        <ele>2493</ele>
        <time>2011-03-16T15:23:50.999Z</time>
      </trkpt>
      <trkpt lat="45.4906" lon="6.67775">
        <ele>2491</ele>
        <time>2011-03-16T15:23:57.000Z</time>
      </trkpt>
      <trkpt lat="45.49099" lon="6.67726">
        <ele>2488</ele>
        <time>2011-03-16T15:24:03.471Z</time>
      </trkpt>
      <trkpt lat="45.49101" lon="6.67655">
        <ele>2483</ele>
        <time>2011-03-16T15:24:12.000Z</time>
      </trkpt>
      <trkpt lat="45.49096" lon="6.67584">
        <ele>2481</ele>
        <time>2011-03-16T15:24:20.000Z</time>
      </trkpt>
      <trkpt lat="45.49119" lon="6.67517">
        <ele>2479</ele>
        <time>2011-03-16T15:24:27.481Z</time>
      </trkpt>
      <trkpt lat="45.49157" lon="6.67472">
        <ele>2478</ele>
        <time>2011-03-16T15:24:34.496Z</time>
      </trkpt>
      <trkpt lat="45.49194" lon="6.67427">
        <ele>2475</ele>
        <time>2011-03-16T15:24:41.471Z</time>
      </trkpt>
      <trkpt lat="45.49235" lon="6.67397">
        <ele>2473</ele>
        <time>2011-03-16T15:24:50.478Z</time>
      </trkpt>
      <trkpt lat="45.49273" lon="6.67356">
        <ele>2467</ele>
        <time>2011-03-16T15:25:06.484Z</time>
      </trkpt>
      <trkpt lat="45.49312" lon="6.67324">
        <ele>2462</ele>
        <time>2011-03-16T15:25:14.505Z</time>
      </trkpt>
      <trkpt lat="45.49355" lon="6.67294">
        <ele>2450</ele>
        <time>2011-03-16T15:25:24.488Z</time>
      </trkpt>
      <trkpt lat="45.49402" lon="6.67265">
        <ele>2431</ele>
        <time>2011-03-16T15:25:34.000Z</time>
      </trkpt>
      <trkpt lat="45.49449" lon="6.67255">
        <ele>2413</ele>
        <time>2011-03-16T15:25:44.000Z</time>
      </trkpt>
      <trkpt lat="45.49488" lon="6.67292">
        <ele>2380</ele>
        <time>2011-03-16T15:25:52.000Z</time>
      </trkpt>
      <trkpt lat="45.49539" lon="6.67311">
        <ele>2372</ele>
        <time>2011-03-16T15:25:59.488Z</time>
      </trkpt>
      <trkpt lat="45.49587" lon="6.67302">
        <ele>2370</ele>
        <time>2011-03-16T15:26:06.534Z</time>
      </trkpt>
      <trkpt lat="45.49627" lon="6.67273">
        <ele>2354</ele>
        <time>2011-03-16T15:26:14.480Z</time>
      </trkpt>
      <trkpt lat="45.49646" lon="6.67268">
        <ele>2327</ele>
        <time>2011-03-16T15:26:29.504Z</time>
      </trkpt>
      <trkpt lat="45.49656" lon="6.67268">
        <ele>2305</ele>
        <time>2011-03-16T15:26:45.476Z</time>
      </trkpt>
      <trkpt lat="45.49699" lon="6.67302">
        <ele>2283</ele>
        <time>2011-03-16T15:26:54.000Z</time>
      </trkpt>
      <trkpt lat="45.49739" lon="6.67343">
        <ele>2270</ele>
        <time>2011-03-16T15:27:01.481Z</time>
      </trkpt>
      <trkpt lat="45.49771" lon="6.67392">
        <ele>2265</ele>
        <time>2011-03-16T15:27:08.490Z</time>
      </trkpt>
      <trkpt lat="45.49808" lon="6.67436">
        <ele>2258</ele>
        <time>2011-03-16T15:27:15.476Z</time>
      </trkpt>
      <trkpt lat="45.49856" lon="6.67466">
        <ele>2248</ele>
        <time>2011-03-16T15:27:20.472Z</time>
      </trkpt>
      <trkpt lat="45.49899" lon="6.67495">
        <ele>2240</ele>
        <time>2011-03-16T15:27:25.999Z</time>
      </trkpt>
      <trkpt lat="45.49944" lon="6.67519">
        <ele>2232</ele>
        <time>2011-03-16T15:27:32.515Z</time>
      </trkpt>
      <trkpt lat="45.49981" lon="6.67476">
        <ele>2223</ele>
        <time>2011-03-16T15:27:39.488Z</time>
      </trkpt>
      <trkpt lat="45.50026" lon="6.67456">
        <ele>2217</ele>
        <time>2011-03-16T15:27:47.481Z</time>
      </trkpt>
      <trkpt lat="45.50072" lon="6.67444">
        <ele>2212</ele>
        <time>2011-03-16T15:27:54.999Z</time>
      </trkpt>
      <trkpt lat="45.50117" lon="6.67453">
        <ele>2207</ele>
        <time>2011-03-16T15:28:01.471Z</time>
      </trkpt>
      <trkpt lat="45.50159" lon="6.6748">
        <ele>2194</ele>
        <time>2011-03-16T15:28:11.488Z</time>
      </trkpt>
      <trkpt lat="45.5021" lon="6.67486">
        <ele>2190</ele>
        <time>2011-03-16T15:28:20.479Z</time>
      </trkpt>
      <trkpt lat="45.50256" lon="6.6747">
        <ele>2188</ele>
        <time>2011-03-16T15:28:27.996Z</time>
      </trkpt>
      <trkpt lat="45.50305" lon="6.67443">
        <ele>2184</ele>
        <time>2011-03-16T15:28:33.000Z</time>
      </trkpt>
      <trkpt lat="45.50349" lon="6.67424">
        <ele>2182</ele>
        <time>2011-03-16T15:28:39.470Z</time>
      </trkpt>
      <trkpt lat="45.50399" lon="6.67431">
        <ele>2162</ele>
        <time>2011-03-16T15:28:52.000Z</time>
      </trkpt>
      <trkpt lat="45.50445" lon="6.67438">
        <ele>2121</ele>
        <time>2011-03-16T15:29:06.469Z</time>
      </trkpt>
      <trkpt lat="45.50458" lon="6.67412">
        <ele>2101</ele>
        <time>2011-03-16T15:29:22.000Z</time>
      </trkpt>
      <trkpt lat="45.50458" lon="6.67409">
        <ele>2095</ele>
        <time>2011-03-16T15:29:37.507Z</time>
      </trkpt>
      <trkpt lat="45.50459" lon="6.67404">
        <ele>2089</ele>
        <time>2011-03-16T15:29:53.000Z</time>
      </trkpt>
      <trkpt lat="45.50458" lon="6.67396">
        <ele>2083</ele>
        <time>2011-03-16T15:30:08.493Z</time>
      </trkpt>
      <trkpt lat="45.50456" lon="6.67391">
        <ele>2078</ele>
        <time>2011-03-16T15:30:24.999Z</time>
      </trkpt>
      <trkpt lat="45.50458" lon="6.67382">
        <ele>2072</ele>
        <time>2011-03-16T15:30:40.480Z</time>
      </trkpt>
      <trkpt lat="45.50449" lon="6.67333">
        <ele>2064</ele>
        <time>2011-03-16T15:30:56.000Z</time>
      </trkpt>
      <trkpt lat="45.50437" lon="6.67289">
        <ele>2069</ele>
        <time>2011-03-16T15:31:11.486Z</time>
      </trkpt>
      <trkpt lat="45.5043" lon="6.67252">
        <ele>2079</ele>
        <time>2011-03-16T15:31:27.000Z</time>
      </trkpt>
      <trkpt lat="45.50423" lon="6.67219">
        <ele>2091</ele>
        <time>2011-03-16T15:31:42.500Z</time>
      </trkpt>
      <trkpt lat="45.50416" lon="6.67183">
        <ele>2101</ele>
        <time>2011-03-16T15:31:58.000Z</time>
      </trkpt>
      <trkpt lat="45.50407" lon="6.67146">
        <ele>2112</ele>
        <time>2011-03-16T15:32:13.478Z</time>
      </trkpt>
      <trkpt lat="45.50398" lon="6.67106">
        <ele>2121</ele>
        <time>2011-03-16T15:32:29.475Z</time>
      </trkpt>
      <trkpt lat="45.5039" lon="6.67066">
        <ele>2129</ele>
        <time>2011-03-16T15:32:45.480Z</time>
      </trkpt>
      <trkpt lat="45.5038" lon="6.67027">
        <ele>2139</ele>
        <time>2011-03-16T15:33:00.495Z</time>
      </trkpt>
      <trkpt lat="45.50371" lon="6.66987">
        <ele>2148</ele>
        <time>2011-03-16T15:33:16.473Z</time>
      </trkpt>
      <trkpt lat="45.50363" lon="6.66948">
        <ele>2160</ele>
        <time>2011-03-16T15:33:32.000Z</time>
      </trkpt>
      <trkpt lat="45.50356" lon="6.6691">
        <ele>2169</ele>
        <time>2011-03-16T15:33:48.000Z</time>
      </trkpt>
      <trkpt lat="45.50347" lon="6.66873">
        <ele>2179</ele>
        <time>2011-03-16T15:34:03.504Z</time>
      </trkpt>
      <trkpt lat="45.50339" lon="6.66835">
        <ele>2190</ele>
        <time>2011-03-16T15:34:19.000Z</time>
      </trkpt>
      <trkpt lat="45.50332" lon="6.668">
        <ele>2198</ele>
        <time>2011-03-16T15:34:34.485Z</time>
      </trkpt>
      <trkpt lat="45.50326" lon="6.66763">
        <ele>2206</ele>
        <time>2011-03-16T15:34:50.000Z</time>
      </trkpt>
      <trkpt lat="45.50321" lon="6.6673">
        <ele>2213</ele>
        <time>2011-03-16T15:35:05.476Z</time>
      </trkpt>
      <trkpt lat="45.5031" lon="6.66687">
        <ele>2220</ele>
        <time>2011-03-16T15:35:21.999Z</time>
      </trkpt>
      <trkpt lat="45.50298" lon="6.66644">
        <ele>2228</ele>
        <time>2011-03-16T15:35:37.495Z</time>
      </trkpt>
      <trkpt lat="45.50289" lon="6.66602">
        <ele>2237</ele>
        <time>2011-03-16T15:35:53.000Z</time>
      </trkpt>
      <trkpt lat="45.50281" lon="6.66564">
        <ele>2247</ele>
        <time>2011-03-16T15:36:08.477Z</time>
      </trkpt>
      <trkpt lat="45.50272" lon="6.66525">
        <ele>2258</ele>
        <time>2011-03-16T15:36:24.000Z</time>
      </trkpt>
      <trkpt lat="45.50264" lon="6.66491">
        <ele>2267</ele>
        <time>2011-03-16T15:36:39.481Z</time>
      </trkpt>
      <trkpt lat="45.50254" lon="6.66452">
        <ele>2278</ele>
        <time>2011-03-16T15:36:55.000Z</time>
      </trkpt>
      <trkpt lat="45.50247" lon="6.66417">
        <ele>2290</ele>
        <time>2011-03-16T15:37:10.482Z</time>
      </trkpt>
      <trkpt lat="45.50238" lon="6.6638">
        <ele>2304</ele>
        <time>2011-03-16T15:37:26.532Z</time>
      </trkpt>
      <trkpt lat="45.5023" lon="6.66344">
        <ele>2315</ele>
        <time>2011-03-16T15:37:41.985Z</time>
      </trkpt>
      <trkpt lat="45.50221" lon="6.66306">
        <ele>2327</ele>
        <time>2011-03-16T15:37:57.481Z</time>
      </trkpt>
      <trkpt lat="45.50211" lon="6.66268">
        <ele>2342</ele>
        <time>2011-03-16T15:38:13.987Z</time>
      </trkpt>
      <trkpt lat="45.50203" lon="6.66232">
        <ele>2357</ele>
        <time>2011-03-16T15:38:29.500Z</time>
      </trkpt>
      <trkpt lat="45.50196" lon="6.662">
        <ele>2370</ele>
        <time>2011-03-16T15:38:45.982Z</time>
      </trkpt>
      <trkpt lat="45.50191" lon="6.66164">
        <ele>2374</ele>
        <time>2011-03-16T15:39:01.485Z</time>
      </trkpt>
      <trkpt lat="45.50211" lon="6.66138">
        <ele>2375</ele>
        <time>2011-03-16T15:39:16.486Z</time>
      </trkpt>
      <trkpt lat="45.5021" lon="6.66135">
        <ele>2376</ele>
        <time>2011-03-16T15:39:32.000Z</time>
      </trkpt>
      <trkpt lat="45.50227" lon="6.66136">
        <ele>2377</ele>
        <time>2011-03-16T15:39:47.494Z</time>
      </trkpt>
      <trkpt lat="45.50272" lon="6.66121">
        <ele>2378</ele>
        <time>2011-03-16T15:39:59.484Z</time>
      </trkpt>
      <trkpt lat="45.50323" lon="6.66106">
        <ele>2378</ele>
        <time>2011-03-16T15:40:08.490Z</time>
      </trkpt>
      <trkpt lat="45.50371" lon="6.66101">
        <ele>2378</ele>
        <time>2011-03-16T15:40:14.476Z</time>
      </trkpt>
      <trkpt lat="45.50417" lon="6.6609">
        <ele>2378</ele>
        <time>2011-03-16T15:40:21.469Z</time>
      </trkpt>
      <trkpt lat="45.50465" lon="6.66083">
        <ele>2377</ele>
        <time>2011-03-16T15:40:34.477Z</time>
      </trkpt>
      <trkpt lat="45.50513" lon="6.66086">
        <ele>2373</ele>
        <time>2011-03-16T15:40:45.471Z</time>
      </trkpt>
      <trkpt lat="45.50567" lon="6.66102">
        <ele>2366</ele>
        <time>2011-03-16T15:40:51.908Z</time>
      </trkpt>
      <trkpt lat="45.50615" lon="6.66124">
        <ele>2358</ele>
        <time>2011-03-16T15:40:57.000Z</time>
      </trkpt>
      <trkpt lat="45.50658" lon="6.66143">
        <ele>2352</ele>
        <time>2011-03-16T15:41:03.500Z</time>
      </trkpt>
      <trkpt lat="45.50692" lon="6.66193">
        <ele>2347</ele>
        <time>2011-03-16T15:41:10.472Z</time>
      </trkpt>
      <trkpt lat="45.5069" lon="6.66257">
        <ele>2342</ele>
        <time>2011-03-16T15:41:16.999Z</time>
      </trkpt>
      <trkpt lat="45.5069" lon="6.6633">
        <ele>2339</ele>
        <time>2011-03-16T15:41:23.000Z</time>
      </trkpt>
      <trkpt lat="45.50731" lon="6.66367">
        <ele>2319</ele>
        <time>2011-03-16T15:41:37.470Z</time>
      </trkpt>
      <trkpt lat="45.50779" lon="6.66363">
        <ele>2307</ele>
        <time>2011-03-16T15:41:49.478Z</time>
      </trkpt>
      <trkpt lat="45.50827" lon="6.66367">
        <ele>2294</ele>
        <time>2011-03-16T15:42:00.488Z</time>
      </trkpt>
      <trkpt lat="45.5087" lon="6.66398">
        <ele>2280</ele>
        <time>2011-03-16T15:42:12.870Z</time>
      </trkpt>
      <trkpt lat="45.5091" lon="6.66433">
        <ele>2271</ele>
        <time>2011-03-16T15:42:21.860Z</time>
      </trkpt>
      <trkpt lat="45.50962" lon="6.66441">
        <ele>2262</ele>
        <time>2011-03-16T15:42:28.846Z</time>
      </trkpt>
      <trkpt lat="45.51005" lon="6.66472">
        <ele>2250</ele>
        <time>2011-03-16T15:42:34.694Z</time>
      </trkpt>
      <trkpt lat="45.51057" lon="6.6647">
        <ele>2238</ele>
        <time>2011-03-16T15:42:41.472Z</time>
      </trkpt>
      <trkpt lat="45.51106" lon="6.66497">
        <ele>2232</ele>
        <time>2011-03-16T15:42:48.467Z</time>
      </trkpt>
      <trkpt lat="45.51149" lon="6.66528">
        <ele>2219</ele>
        <time>2011-03-16T15:42:55.542Z</time>
      </trkpt>
      <trkpt lat="45.51189" lon="6.6657">
        <ele>2201</ele>
        <time>2011-03-16T15:43:03.485Z</time>
      </trkpt>
      <trkpt lat="45.5122" lon="6.66621">
        <ele>2187</ele>
        <time>2011-03-16T15:43:11.469Z</time>
      </trkpt>
      <trkpt lat="45.51232" lon="6.66691">
        <ele>2179</ele>
        <time>2011-03-16T15:43:18.470Z</time>
      </trkpt>
      <trkpt lat="45.51215" lon="6.66752">
        <ele>2173</ele>
        <time>2011-03-16T15:43:26.000Z</time>
      </trkpt>
      <trkpt lat="45.51213" lon="6.66729">
        <ele>2154</ele>
        <time>2011-03-16T15:43:41.474Z</time>
      </trkpt>
      <trkpt lat="45.51212" lon="6.66727">
        <ele>2152</ele>
        <time>2011-03-16T15:43:56.999Z</time>
      </trkpt>
      <trkpt lat="45.51212" lon="6.66727">
        <ele>2151</ele>
        <time>2011-03-16T15:44:12.588Z</time>
      </trkpt>
      <trkpt lat="45.51216" lon="6.66702">
        <ele>2144</ele>
        <time>2011-03-16T15:44:28.493Z</time>
      </trkpt>
      <trkpt lat="45.51216" lon="6.66702">
        <ele>2050</ele>
        <time>2011-03-16T15:44:43.498Z</time>
      </trkpt>
    </trkseg>
  </trk>
</gpx>